<?xml version="1.0" encoding="UTF-8" standalone="no" ?>
<gpx xmlns="http://www.topografix.com/GPX/1/1" xmlns:xsi="http://www.w3.org/2001/XMLSchema-instance" xsi:schemaLocation="http://www.topografix.com/GPX/1/1 http://www.topografix.com/GPX/1/1/gpx.xsd" version="1.1" creator="VisuGPX - https://www.visugpx.com">
  <metadata>
    <name>taxenne</name>
    <desc><![CDATA[agréable rando jonquilles]]></desc>
  </metadata>
  <trk>
    <name><![CDATA[ACTIVE LOG]]></name>
    <trkseg>
      <trkpt lat="47.22362" lon="5.679">
        <ele>211.146729</ele>
        <time>2013-04-04T12:05:09Z</time>
      </trkpt>
      <trkpt lat="47.22361" lon="5.67911">
        <ele>210.666016</ele>
        <time>2013-04-04T12:05:56Z</time>
      </trkpt>
      <trkpt lat="47.2236" lon="5.67914">
        <ele>211.146729</ele>
        <time>2013-04-04T12:06:28Z</time>
      </trkpt>
      <trkpt lat="47.22362" lon="5.67919">
        <ele>211.627441</ele>
        <time>2013-04-04T12:06:34Z</time>
      </trkpt>
      <trkpt lat="47.22363" lon="5.67951">
        <ele>212.108032</ele>
        <time>2013-04-04T12:06:55Z</time>
      </trkpt>
      <trkpt lat="47.22363" lon="5.67953">
        <ele>212.108032</ele>
        <time>2013-04-04T12:06:56Z</time>
      </trkpt>
      <trkpt lat="47.22362" lon="5.67957">
        <ele>212.588623</ele>
        <time>2013-04-04T12:06:58Z</time>
      </trkpt>
      <trkpt lat="47.22362" lon="5.67979">
        <ele>214.51123</ele>
        <time>2013-04-04T12:07:12Z</time>
      </trkpt>
      <trkpt lat="47.22359" lon="5.68001">
        <ele>216.914673</ele>
        <time>2013-04-04T12:07:26Z</time>
      </trkpt>
      <trkpt lat="47.22358" lon="5.68006">
        <ele>217.395386</ele>
        <time>2013-04-04T12:07:30Z</time>
      </trkpt>
      <trkpt lat="47.2236" lon="5.68025">
        <ele>221.240601</ele>
        <time>2013-04-04T12:07:44Z</time>
      </trkpt>
      <trkpt lat="47.22362" lon="5.6803">
        <ele>222.201782</ele>
        <time>2013-04-04T12:07:49Z</time>
      </trkpt>
      <trkpt lat="47.22366" lon="5.68035">
        <ele>222.201782</ele>
        <time>2013-04-04T12:07:54Z</time>
      </trkpt>
      <trkpt lat="47.22369" lon="5.68035">
        <ele>222.682495</ele>
        <time>2013-04-04T12:07:56Z</time>
      </trkpt>
      <trkpt lat="47.22377" lon="5.68047">
        <ele>224.124512</ele>
        <time>2013-04-04T12:08:07Z</time>
      </trkpt>
      <trkpt lat="47.22381" lon="5.68048">
        <ele>224.124512</ele>
        <time>2013-04-04T12:08:12Z</time>
      </trkpt>
      <trkpt lat="47.22386" lon="5.68045">
        <ele>224.124512</ele>
        <time>2013-04-04T12:08:18Z</time>
      </trkpt>
      <trkpt lat="47.22395" lon="5.68042">
        <ele>224.605225</ele>
        <time>2013-04-04T12:08:26Z</time>
      </trkpt>
      <trkpt lat="47.22407" lon="5.68044">
        <ele>224.605225</ele>
        <time>2013-04-04T12:08:38Z</time>
      </trkpt>
      <trkpt lat="47.2241" lon="5.68048">
        <ele>225.085938</ele>
        <time>2013-04-04T12:08:42Z</time>
      </trkpt>
      <trkpt lat="47.22414" lon="5.68063">
        <ele>226.047119</ele>
        <time>2013-04-04T12:08:52Z</time>
      </trkpt>
      <trkpt lat="47.2242" lon="5.68069">
        <ele>227.489136</ele>
        <time>2013-04-04T12:08:58Z</time>
      </trkpt>
      <trkpt lat="47.22425" lon="5.68069">
        <ele>227.489136</ele>
        <time>2013-04-04T12:09:01Z</time>
      </trkpt>
      <trkpt lat="47.22429" lon="5.68073">
        <ele>227.489136</ele>
        <time>2013-04-04T12:09:05Z</time>
      </trkpt>
      <trkpt lat="47.22434" lon="5.68077">
        <ele>228.450439</ele>
        <time>2013-04-04T12:09:09Z</time>
      </trkpt>
      <trkpt lat="47.22439" lon="5.68078">
        <ele>228.450439</ele>
        <time>2013-04-04T12:09:13Z</time>
      </trkpt>
      <trkpt lat="47.22442" lon="5.68075">
        <ele>228.931152</ele>
        <time>2013-04-04T12:09:16Z</time>
      </trkpt>
      <trkpt lat="47.22449" lon="5.68068">
        <ele>229.892334</ele>
        <time>2013-04-04T12:09:26Z</time>
      </trkpt>
      <trkpt lat="47.22456" lon="5.68068">
        <ele>229.411743</ele>
        <time>2013-04-04T12:09:30Z</time>
      </trkpt>
      <trkpt lat="47.22459" lon="5.68063">
        <ele>229.411743</ele>
        <time>2013-04-04T12:09:34Z</time>
      </trkpt>
      <trkpt lat="47.22468" lon="5.6806">
        <ele>229.892334</ele>
        <time>2013-04-04T12:09:41Z</time>
      </trkpt>
      <trkpt lat="47.22486" lon="5.6805">
        <ele>230.373047</ele>
        <time>2013-04-04T12:09:56Z</time>
      </trkpt>
      <trkpt lat="47.225" lon="5.6804">
        <ele>231.334351</ele>
        <time>2013-04-04T12:10:08Z</time>
      </trkpt>
      <trkpt lat="47.22511" lon="5.68031">
        <ele>231.334351</ele>
        <time>2013-04-04T12:10:18Z</time>
      </trkpt>
      <trkpt lat="47.22526" lon="5.68017">
        <ele>231.814941</ele>
        <time>2013-04-04T12:10:34Z</time>
      </trkpt>
      <trkpt lat="47.22535" lon="5.68014">
        <ele>231.814941</ele>
        <time>2013-04-04T12:10:41Z</time>
      </trkpt>
      <trkpt lat="47.2254" lon="5.68009">
        <ele>232.776489</ele>
        <time>2013-04-04T12:10:46Z</time>
      </trkpt>
      <trkpt lat="47.22557" lon="5.68013">
        <ele>231.814941</ele>
        <time>2013-04-04T12:10:59Z</time>
      </trkpt>
      <trkpt lat="47.22561" lon="5.68017">
        <ele>232.776489</ele>
        <time>2013-04-04T12:11:04Z</time>
      </trkpt>
      <trkpt lat="47.22562" lon="5.6802">
        <ele>232.776489</ele>
        <time>2013-04-04T12:11:06Z</time>
      </trkpt>
      <trkpt lat="47.22579" lon="5.68029">
        <ele>234.699097</ele>
        <time>2013-04-04T12:11:22Z</time>
      </trkpt>
      <trkpt lat="47.2259" lon="5.68024">
        <ele>235.179688</ele>
        <time>2013-04-04T12:11:32Z</time>
      </trkpt>
      <trkpt lat="47.226" lon="5.68012">
        <ele>236.621704</ele>
        <time>2013-04-04T12:11:44Z</time>
      </trkpt>
      <trkpt lat="47.22602" lon="5.6801">
        <ele>237.102295</ele>
        <time>2013-04-04T12:11:46Z</time>
      </trkpt>
      <trkpt lat="47.22604" lon="5.68005">
        <ele>237.102295</ele>
        <time>2013-04-04T12:11:49Z</time>
      </trkpt>
      <trkpt lat="47.22624" lon="5.67988">
        <ele>237.582886</ele>
        <time>2013-04-04T12:12:07Z</time>
      </trkpt>
      <trkpt lat="47.22642" lon="5.67975">
        <ele>238.544312</ele>
        <time>2013-04-04T12:12:24Z</time>
      </trkpt>
      <trkpt lat="47.22656" lon="5.67973">
        <ele>239.505493</ele>
        <time>2013-04-04T12:12:35Z</time>
      </trkpt>
      <trkpt lat="47.22673" lon="5.67973">
        <ele>240.947632</ele>
        <time>2013-04-04T12:12:49Z</time>
      </trkpt>
      <trkpt lat="47.22691" lon="5.67975">
        <ele>242.870239</ele>
        <time>2013-04-04T12:13:06Z</time>
      </trkpt>
      <trkpt lat="47.22708" lon="5.67973">
        <ele>244.312256</ele>
        <time>2013-04-04T12:13:22Z</time>
      </trkpt>
      <trkpt lat="47.22728" lon="5.67972">
        <ele>247.196045</ele>
        <time>2013-04-04T12:13:39Z</time>
      </trkpt>
      <trkpt lat="47.22735" lon="5.67975">
        <ele>248.157593</ele>
        <time>2013-04-04T12:13:46Z</time>
      </trkpt>
      <trkpt lat="47.2274" lon="5.67978">
        <ele>248.638184</ele>
        <time>2013-04-04T12:13:51Z</time>
      </trkpt>
      <trkpt lat="47.22754" lon="5.67983">
        <ele>250.0802</ele>
        <time>2013-04-04T12:14:04Z</time>
      </trkpt>
      <trkpt lat="47.22768" lon="5.67992">
        <ele>252.483398</ele>
        <time>2013-04-04T12:14:18Z</time>
      </trkpt>
      <trkpt lat="47.2278" lon="5.68002">
        <ele>253.925415</ele>
        <time>2013-04-04T12:14:30Z</time>
      </trkpt>
      <trkpt lat="47.22794" lon="5.68014">
        <ele>256.328735</ele>
        <time>2013-04-04T12:14:43Z</time>
      </trkpt>
      <trkpt lat="47.22798" lon="5.68017">
        <ele>256.328735</ele>
        <time>2013-04-04T12:14:46Z</time>
      </trkpt>
      <trkpt lat="47.228" lon="5.68019">
        <ele>257.290039</ele>
        <time>2013-04-04T12:14:49Z</time>
      </trkpt>
      <trkpt lat="47.22806" lon="5.68025">
        <ele>257.770752</ele>
        <time>2013-04-04T12:14:58Z</time>
      </trkpt>
      <trkpt lat="47.22809" lon="5.68028">
        <ele>258.731934</ele>
        <time>2013-04-04T12:15:00Z</time>
      </trkpt>
      <trkpt lat="47.22827" lon="5.68033">
        <ele>260.17395</ele>
        <time>2013-04-04T12:15:16Z</time>
      </trkpt>
      <trkpt lat="47.2283" lon="5.68031">
        <ele>259.693359</ele>
        <time>2013-04-04T12:15:19Z</time>
      </trkpt>
      <trkpt lat="47.22843" lon="5.68024">
        <ele>261.615967</ele>
        <time>2013-04-04T12:15:33Z</time>
      </trkpt>
      <trkpt lat="47.22854" lon="5.68024">
        <ele>263.057861</ele>
        <time>2013-04-04T12:15:42Z</time>
      </trkpt>
      <trkpt lat="47.22865" lon="5.68022">
        <ele>264.499878</ele>
        <time>2013-04-04T12:15:52Z</time>
      </trkpt>
      <trkpt lat="47.22868" lon="5.68021">
        <ele>264.019287</ele>
        <time>2013-04-04T12:15:54Z</time>
      </trkpt>
      <trkpt lat="47.22881" lon="5.68017">
        <ele>265.461304</ele>
        <time>2013-04-04T12:16:06Z</time>
      </trkpt>
      <trkpt lat="47.22901" lon="5.68018">
        <ele>264.980591</ele>
        <time>2013-04-04T12:16:22Z</time>
      </trkpt>
      <trkpt lat="47.22913" lon="5.68017">
        <ele>267.383911</ele>
        <time>2013-04-04T12:16:33Z</time>
      </trkpt>
      <trkpt lat="47.22931" lon="5.6802">
        <ele>269.306519</ele>
        <time>2013-04-04T12:16:50Z</time>
      </trkpt>
      <trkpt lat="47.22935" lon="5.68021">
        <ele>269.787109</ele>
        <time>2013-04-04T12:16:54Z</time>
      </trkpt>
      <trkpt lat="47.22948" lon="5.68025">
        <ele>271.229126</ele>
        <time>2013-04-04T12:17:05Z</time>
      </trkpt>
      <trkpt lat="47.22955" lon="5.68028">
        <ele>271.709717</ele>
        <time>2013-04-04T12:17:12Z</time>
      </trkpt>
      <trkpt lat="47.22959" lon="5.68026">
        <ele>271.709717</ele>
        <time>2013-04-04T12:17:15Z</time>
      </trkpt>
      <trkpt lat="47.22979" lon="5.68026">
        <ele>272.671143</ele>
        <time>2013-04-04T12:17:31Z</time>
      </trkpt>
      <trkpt lat="47.22998" lon="5.68026">
        <ele>274.113037</ele>
        <time>2013-04-04T12:17:46Z</time>
      </trkpt>
      <trkpt lat="47.23012" lon="5.68026">
        <ele>274.113037</ele>
        <time>2013-04-04T12:17:56Z</time>
      </trkpt>
      <trkpt lat="47.23018" lon="5.68023">
        <ele>273.632446</ele>
        <time>2013-04-04T12:18:01Z</time>
      </trkpt>
      <trkpt lat="47.23032" lon="5.68022">
        <ele>275.555054</ele>
        <time>2013-04-04T12:18:14Z</time>
      </trkpt>
      <trkpt lat="47.23052" lon="5.68017">
        <ele>276.516357</ele>
        <time>2013-04-04T12:18:32Z</time>
      </trkpt>
      <trkpt lat="47.23068" lon="5.68007">
        <ele>276.516357</ele>
        <time>2013-04-04T12:18:49Z</time>
      </trkpt>
      <trkpt lat="47.23085" lon="5.68005">
        <ele>276.99707</ele>
        <time>2013-04-04T12:19:03Z</time>
      </trkpt>
      <trkpt lat="47.23109" lon="5.67993">
        <ele>277.477661</ele>
        <time>2013-04-04T12:19:24Z</time>
      </trkpt>
      <trkpt lat="47.23124" lon="5.67983">
        <ele>277.958252</ele>
        <time>2013-04-04T12:19:37Z</time>
      </trkpt>
      <trkpt lat="47.2314" lon="5.67973">
        <ele>277.958252</ele>
        <time>2013-04-04T12:19:54Z</time>
      </trkpt>
      <trkpt lat="47.23168" lon="5.67967">
        <ele>277.958252</ele>
        <time>2013-04-04T12:20:18Z</time>
      </trkpt>
      <trkpt lat="47.23185" lon="5.67962">
        <ele>276.035645</ele>
        <time>2013-04-04T12:20:32Z</time>
      </trkpt>
      <trkpt lat="47.23202" lon="5.67948">
        <ele>277.958252</ele>
        <time>2013-04-04T12:20:50Z</time>
      </trkpt>
      <trkpt lat="47.23217" lon="5.67939">
        <ele>279.400269</ele>
        <time>2013-04-04T12:21:05Z</time>
      </trkpt>
      <trkpt lat="47.23225" lon="5.67935">
        <ele>280.361694</ele>
        <time>2013-04-04T12:21:13Z</time>
      </trkpt>
      <trkpt lat="47.23246" lon="5.67931">
        <ele>281.803589</ele>
        <time>2013-04-04T12:21:31Z</time>
      </trkpt>
      <trkpt lat="47.23264" lon="5.67928">
        <ele>283.245605</ele>
        <time>2013-04-04T12:21:47Z</time>
      </trkpt>
      <trkpt lat="47.2328" lon="5.6793">
        <ele>284.687622</ele>
        <time>2013-04-04T12:21:59Z</time>
      </trkpt>
      <trkpt lat="47.2329" lon="5.67928">
        <ele>285.168213</ele>
        <time>2013-04-04T12:22:06Z</time>
      </trkpt>
      <trkpt lat="47.23306" lon="5.67925">
        <ele>286.610229</ele>
        <time>2013-04-04T12:22:23Z</time>
      </trkpt>
      <trkpt lat="47.23307" lon="5.67926">
        <ele>286.129517</ele>
        <time>2013-04-04T12:22:24Z</time>
      </trkpt>
      <trkpt lat="47.23316" lon="5.67926">
        <ele>286.610229</ele>
        <time>2013-04-04T12:22:31Z</time>
      </trkpt>
      <trkpt lat="47.2333" lon="5.67926">
        <ele>287.09082</ele>
        <time>2013-04-04T12:22:43Z</time>
      </trkpt>
      <trkpt lat="47.23342" lon="5.67928">
        <ele>288.052246</ele>
        <time>2013-04-04T12:22:52Z</time>
      </trkpt>
      <trkpt lat="47.23356" lon="5.67931">
        <ele>288.532959</ele>
        <time>2013-04-04T12:23:04Z</time>
      </trkpt>
      <trkpt lat="47.23358" lon="5.67932">
        <ele>289.01355</ele>
        <time>2013-04-04T12:23:06Z</time>
      </trkpt>
      <trkpt lat="47.23369" lon="5.67936">
        <ele>289.974854</ele>
        <time>2013-04-04T12:23:17Z</time>
      </trkpt>
      <trkpt lat="47.23372" lon="5.67937">
        <ele>290.455566</ele>
        <time>2013-04-04T12:23:20Z</time>
      </trkpt>
      <trkpt lat="47.23379" lon="5.67939">
        <ele>289.974854</ele>
        <time>2013-04-04T12:23:25Z</time>
      </trkpt>
      <trkpt lat="47.23393" lon="5.67945">
        <ele>291.416748</ele>
        <time>2013-04-04T12:23:38Z</time>
      </trkpt>
      <trkpt lat="47.23397" lon="5.67947">
        <ele>291.416748</ele>
        <time>2013-04-04T12:23:42Z</time>
      </trkpt>
      <trkpt lat="47.23402" lon="5.67949">
        <ele>292.378174</ele>
        <time>2013-04-04T12:23:46Z</time>
      </trkpt>
      <trkpt lat="47.23414" lon="5.67949">
        <ele>292.858765</ele>
        <time>2013-04-04T12:23:58Z</time>
      </trkpt>
      <trkpt lat="47.23423" lon="5.67947">
        <ele>293.339355</ele>
        <time>2013-04-04T12:24:07Z</time>
      </trkpt>
      <trkpt lat="47.23431" lon="5.67945">
        <ele>292.378174</ele>
        <time>2013-04-04T12:24:12Z</time>
      </trkpt>
      <trkpt lat="47.23433" lon="5.67942">
        <ele>292.858765</ele>
        <time>2013-04-04T12:24:16Z</time>
      </trkpt>
      <trkpt lat="47.23445" lon="5.67938">
        <ele>291.897461</ele>
        <time>2013-04-04T12:24:24Z</time>
      </trkpt>
      <trkpt lat="47.23452" lon="5.67934">
        <ele>292.378174</ele>
        <time>2013-04-04T12:24:30Z</time>
      </trkpt>
      <trkpt lat="47.23456" lon="5.67933">
        <ele>291.416748</ele>
        <time>2013-04-04T12:24:32Z</time>
      </trkpt>
      <trkpt lat="47.23472" lon="5.67925">
        <ele>290.936157</ele>
        <time>2013-04-04T12:24:49Z</time>
      </trkpt>
      <trkpt lat="47.2349" lon="5.67923">
        <ele>291.416748</ele>
        <time>2013-04-04T12:25:01Z</time>
      </trkpt>
      <trkpt lat="47.23491" lon="5.67923">
        <ele>290.936157</ele>
        <time>2013-04-04T12:25:02Z</time>
      </trkpt>
      <trkpt lat="47.23508" lon="5.67923">
        <ele>291.416748</ele>
        <time>2013-04-04T12:25:15Z</time>
      </trkpt>
      <trkpt lat="47.2352" lon="5.67922">
        <ele>291.416748</ele>
        <time>2013-04-04T12:25:26Z</time>
      </trkpt>
      <trkpt lat="47.23534" lon="5.67923">
        <ele>290.936157</ele>
        <time>2013-04-04T12:25:37Z</time>
      </trkpt>
      <trkpt lat="47.23545" lon="5.67924">
        <ele>290.936157</ele>
        <time>2013-04-04T12:25:47Z</time>
      </trkpt>
      <trkpt lat="47.2356" lon="5.67928">
        <ele>291.416748</ele>
        <time>2013-04-04T12:26:01Z</time>
      </trkpt>
      <trkpt lat="47.23585" lon="5.67939">
        <ele>291.897461</ele>
        <time>2013-04-04T12:26:20Z</time>
      </trkpt>
      <trkpt lat="47.23589" lon="5.67941">
        <ele>291.897461</ele>
        <time>2013-04-04T12:26:24Z</time>
      </trkpt>
      <trkpt lat="47.23604" lon="5.67947">
        <ele>291.416748</ele>
        <time>2013-04-04T12:26:38Z</time>
      </trkpt>
      <trkpt lat="47.23613" lon="5.67951">
        <ele>290.936157</ele>
        <time>2013-04-04T12:26:45Z</time>
      </trkpt>
      <trkpt lat="47.23621" lon="5.67953">
        <ele>290.936157</ele>
        <time>2013-04-04T12:26:50Z</time>
      </trkpt>
      <trkpt lat="47.23624" lon="5.67955">
        <ele>290.936157</ele>
        <time>2013-04-04T12:26:53Z</time>
      </trkpt>
      <trkpt lat="47.23628" lon="5.67965">
        <ele>290.455566</ele>
        <time>2013-04-04T12:27:01Z</time>
      </trkpt>
      <trkpt lat="47.2364" lon="5.67976">
        <ele>290.936157</ele>
        <time>2013-04-04T12:27:12Z</time>
      </trkpt>
      <trkpt lat="47.23655" lon="5.67986">
        <ele>290.455566</ele>
        <time>2013-04-04T12:27:26Z</time>
      </trkpt>
      <trkpt lat="47.23657" lon="5.67987">
        <ele>289.494141</ele>
        <time>2013-04-04T12:27:29Z</time>
      </trkpt>
      <trkpt lat="47.23672" lon="5.67987">
        <ele>288.532959</ele>
        <time>2013-04-04T12:27:43Z</time>
      </trkpt>
      <trkpt lat="47.23687" lon="5.67987">
        <ele>285.648804</ele>
        <time>2013-04-04T12:27:57Z</time>
      </trkpt>
      <trkpt lat="47.23704" lon="5.67985">
        <ele>283.726196</ele>
        <time>2013-04-04T12:28:12Z</time>
      </trkpt>
      <trkpt lat="47.23727" lon="5.67992">
        <ele>281.322998</ele>
        <time>2013-04-04T12:28:31Z</time>
      </trkpt>
      <trkpt lat="47.23732" lon="5.67991">
        <ele>279.880859</ele>
        <time>2013-04-04T12:28:36Z</time>
      </trkpt>
      <trkpt lat="47.23743" lon="5.67994">
        <ele>278.438965</ele>
        <time>2013-04-04T12:28:48Z</time>
      </trkpt>
      <trkpt lat="47.23761" lon="5.68001">
        <ele>276.035645</ele>
        <time>2013-04-04T12:29:03Z</time>
      </trkpt>
      <trkpt lat="47.23773" lon="5.68008">
        <ele>274.113037</ele>
        <time>2013-04-04T12:29:15Z</time>
      </trkpt>
      <trkpt lat="47.23786" lon="5.68014">
        <ele>273.151855</ele>
        <time>2013-04-04T12:29:28Z</time>
      </trkpt>
      <trkpt lat="47.23797" lon="5.68026">
        <ele>271.229126</ele>
        <time>2013-04-04T12:29:41Z</time>
      </trkpt>
      <trkpt lat="47.23808" lon="5.68033">
        <ele>270.2677</ele>
        <time>2013-04-04T12:29:50Z</time>
      </trkpt>
      <trkpt lat="47.23815" lon="5.68038">
        <ele>269.787109</ele>
        <time>2013-04-04T12:29:57Z</time>
      </trkpt>
      <trkpt lat="47.23821" lon="5.68047">
        <ele>269.306519</ele>
        <time>2013-04-04T12:30:04Z</time>
      </trkpt>
      <trkpt lat="47.23836" lon="5.68063">
        <ele>267.864502</ele>
        <time>2013-04-04T12:30:20Z</time>
      </trkpt>
      <trkpt lat="47.23842" lon="5.6807">
        <ele>266.903198</ele>
        <time>2013-04-04T12:30:27Z</time>
      </trkpt>
      <trkpt lat="47.23851" lon="5.68081">
        <ele>267.383911</ele>
        <time>2013-04-04T12:30:36Z</time>
      </trkpt>
      <trkpt lat="47.23868" lon="5.68097">
        <ele>265.941895</ele>
        <time>2013-04-04T12:30:54Z</time>
      </trkpt>
      <trkpt lat="47.23883" lon="5.68112">
        <ele>264.019287</ele>
        <time>2013-04-04T12:31:10Z</time>
      </trkpt>
      <trkpt lat="47.23894" lon="5.68118">
        <ele>263.057861</ele>
        <time>2013-04-04T12:31:23Z</time>
      </trkpt>
      <trkpt lat="47.23899" lon="5.68122">
        <ele>261.615967</ele>
        <time>2013-04-04T12:31:28Z</time>
      </trkpt>
      <trkpt lat="47.23906" lon="5.68126">
        <ele>260.654541</ele>
        <time>2013-04-04T12:31:37Z</time>
      </trkpt>
      <trkpt lat="47.23928" lon="5.6813">
        <ele>257.770752</ele>
        <time>2013-04-04T12:31:53Z</time>
      </trkpt>
      <trkpt lat="47.23942" lon="5.68132">
        <ele>255.848022</ele>
        <time>2013-04-04T12:32:02Z</time>
      </trkpt>
      <trkpt lat="47.23957" lon="5.6813">
        <ele>253.444702</ele>
        <time>2013-04-04T12:32:17Z</time>
      </trkpt>
      <trkpt lat="47.2397" lon="5.68133">
        <ele>251.522095</ele>
        <time>2013-04-04T12:32:31Z</time>
      </trkpt>
      <trkpt lat="47.23968" lon="5.68136">
        <ele>251.522095</ele>
        <time>2013-04-04T12:33:19Z</time>
      </trkpt>
      <trkpt lat="47.23968" lon="5.68136">
        <ele>252.002808</ele>
        <time>2013-04-04T12:34:44Z</time>
      </trkpt>
      <trkpt lat="47.23969" lon="5.68135">
        <ele>252.002808</ele>
        <time>2013-04-04T12:35:57Z</time>
      </trkpt>
      <trkpt lat="47.23978" lon="5.68142">
        <ele>251.041382</ele>
        <time>2013-04-04T12:36:41Z</time>
      </trkpt>
      <trkpt lat="47.23989" lon="5.68151">
        <ele>249.599487</ele>
        <time>2013-04-04T12:36:51Z</time>
      </trkpt>
      <trkpt lat="47.24005" lon="5.68171">
        <ele>248.157593</ele>
        <time>2013-04-04T12:37:08Z</time>
      </trkpt>
      <trkpt lat="47.24009" lon="5.68175">
        <ele>248.157593</ele>
        <time>2013-04-04T12:37:12Z</time>
      </trkpt>
      <trkpt lat="47.24014" lon="5.68181">
        <ele>247.676758</ele>
        <time>2013-04-04T12:37:17Z</time>
      </trkpt>
      <trkpt lat="47.24032" lon="5.68211">
        <ele>246.234863</ele>
        <time>2013-04-04T12:37:41Z</time>
      </trkpt>
      <trkpt lat="47.24047" lon="5.6823">
        <ele>245.273438</ele>
        <time>2013-04-04T12:37:58Z</time>
      </trkpt>
      <trkpt lat="47.24062" lon="5.68243">
        <ele>243.831543</ele>
        <time>2013-04-04T12:38:12Z</time>
      </trkpt>
      <trkpt lat="47.24072" lon="5.68258">
        <ele>241.908936</ele>
        <time>2013-04-04T12:38:25Z</time>
      </trkpt>
      <trkpt lat="47.24086" lon="5.68286">
        <ele>239.024902</ele>
        <time>2013-04-04T12:38:45Z</time>
      </trkpt>
      <trkpt lat="47.24088" lon="5.6829">
        <ele>239.024902</ele>
        <time>2013-04-04T12:38:48Z</time>
      </trkpt>
      <trkpt lat="47.24094" lon="5.68325">
        <ele>236.621704</ele>
        <time>2013-04-04T12:39:10Z</time>
      </trkpt>
      <trkpt lat="47.24093" lon="5.68339">
        <ele>235.660278</ele>
        <time>2013-04-04T12:39:24Z</time>
      </trkpt>
      <trkpt lat="47.24095" lon="5.68355">
        <ele>234.699097</ele>
        <time>2013-04-04T12:39:35Z</time>
      </trkpt>
      <trkpt lat="47.24098" lon="5.68371">
        <ele>234.699097</ele>
        <time>2013-04-04T12:39:45Z</time>
      </trkpt>
      <trkpt lat="47.241" lon="5.68388">
        <ele>234.218384</ele>
        <time>2013-04-04T12:39:55Z</time>
      </trkpt>
      <trkpt lat="47.24106" lon="5.68411">
        <ele>234.699097</ele>
        <time>2013-04-04T12:40:09Z</time>
      </trkpt>
      <trkpt lat="47.2411" lon="5.68425">
        <ele>234.218384</ele>
        <time>2013-04-04T12:40:17Z</time>
      </trkpt>
      <trkpt lat="47.24115" lon="5.68434">
        <ele>234.218384</ele>
        <time>2013-04-04T12:40:23Z</time>
      </trkpt>
      <trkpt lat="47.2412" lon="5.6845">
        <ele>233.25708</ele>
        <time>2013-04-04T12:40:46Z</time>
      </trkpt>
      <trkpt lat="47.24122" lon="5.6845">
        <ele>233.25708</ele>
        <time>2013-04-04T12:41:37Z</time>
      </trkpt>
      <trkpt lat="47.24122" lon="5.6845">
        <ele>233.25708</ele>
        <time>2013-04-04T12:43:21Z</time>
      </trkpt>
      <trkpt lat="47.2412" lon="5.68451">
        <ele>233.737671</ele>
        <time>2013-04-04T12:44:06Z</time>
      </trkpt>
      <trkpt lat="47.24119" lon="5.6845">
        <ele>233.737671</ele>
        <time>2013-04-04T12:45:09Z</time>
      </trkpt>
      <trkpt lat="47.24119" lon="5.68452">
        <ele>234.218384</ele>
        <time>2013-04-04T12:48:58Z</time>
      </trkpt>
      <trkpt lat="47.24119" lon="5.68464">
        <ele>233.737671</ele>
        <time>2013-04-04T12:50:19Z</time>
      </trkpt>
      <trkpt lat="47.24122" lon="5.68469">
        <ele>233.25708</ele>
        <time>2013-04-04T12:50:31Z</time>
      </trkpt>
      <trkpt lat="47.24133" lon="5.68485">
        <ele>232.295776</ele>
        <time>2013-04-04T12:50:48Z</time>
      </trkpt>
      <trkpt lat="47.24152" lon="5.6851">
        <ele>229.411743</ele>
        <time>2013-04-04T12:51:12Z</time>
      </trkpt>
      <trkpt lat="47.24176" lon="5.68531">
        <ele>226.527832</ele>
        <time>2013-04-04T12:51:34Z</time>
      </trkpt>
      <trkpt lat="47.24197" lon="5.68556">
        <ele>224.124512</ele>
        <time>2013-04-04T12:51:57Z</time>
      </trkpt>
      <trkpt lat="47.24214" lon="5.68586">
        <ele>222.201782</ele>
        <time>2013-04-04T12:52:20Z</time>
      </trkpt>
      <trkpt lat="47.24236" lon="5.68625">
        <ele>221.721191</ele>
        <time>2013-04-04T12:52:48Z</time>
      </trkpt>
      <trkpt lat="47.2426" lon="5.68669">
        <ele>220.759888</ele>
        <time>2013-04-04T12:53:17Z</time>
      </trkpt>
      <trkpt lat="47.2428" lon="5.68695">
        <ele>219.798584</ele>
        <time>2013-04-04T12:53:39Z</time>
      </trkpt>
      <trkpt lat="47.24299" lon="5.68712">
        <ele>218.356567</ele>
        <time>2013-04-04T12:53:56Z</time>
      </trkpt>
      <trkpt lat="47.2432" lon="5.68732">
        <ele>217.395386</ele>
        <time>2013-04-04T12:54:15Z</time>
      </trkpt>
      <trkpt lat="47.24348" lon="5.68753">
        <ele>215.953247</ele>
        <time>2013-04-04T12:54:39Z</time>
      </trkpt>
      <trkpt lat="47.24366" lon="5.68766">
        <ele>215.472656</ele>
        <time>2013-04-04T12:54:55Z</time>
      </trkpt>
      <trkpt lat="47.24388" lon="5.68782">
        <ele>214.991943</ele>
        <time>2013-04-04T12:55:13Z</time>
      </trkpt>
      <trkpt lat="47.24393" lon="5.68787">
        <ele>214.03064</ele>
        <time>2013-04-04T12:55:18Z</time>
      </trkpt>
      <trkpt lat="47.24401" lon="5.68798">
        <ele>214.03064</ele>
        <time>2013-04-04T12:55:29Z</time>
      </trkpt>
      <trkpt lat="47.24408" lon="5.68801">
        <ele>214.03064</ele>
        <time>2013-04-04T12:55:33Z</time>
      </trkpt>
      <trkpt lat="47.24414" lon="5.68806">
        <ele>213.550049</ele>
        <time>2013-04-04T12:55:40Z</time>
      </trkpt>
      <trkpt lat="47.24431" lon="5.68813">
        <ele>212.108032</ele>
        <time>2013-04-04T12:55:55Z</time>
      </trkpt>
      <trkpt lat="47.24451" lon="5.68816">
        <ele>210.666016</ele>
        <time>2013-04-04T12:56:10Z</time>
      </trkpt>
      <trkpt lat="47.24464" lon="5.68817">
        <ele>210.185425</ele>
        <time>2013-04-04T12:56:19Z</time>
      </trkpt>
      <trkpt lat="47.2447" lon="5.6882">
        <ele>209.224121</ele>
        <time>2013-04-04T12:56:25Z</time>
      </trkpt>
      <trkpt lat="47.24491" lon="5.68812">
        <ele>207.782104</ele>
        <time>2013-04-04T12:56:43Z</time>
      </trkpt>
      <trkpt lat="47.24496" lon="5.68807">
        <ele>207.301392</ele>
        <time>2013-04-04T12:56:47Z</time>
      </trkpt>
      <trkpt lat="47.24501" lon="5.68802">
        <ele>206.820679</ele>
        <time>2013-04-04T12:56:52Z</time>
      </trkpt>
      <trkpt lat="47.24511" lon="5.68797">
        <ele>206.340088</ele>
        <time>2013-04-04T12:57:02Z</time>
      </trkpt>
      <trkpt lat="47.24515" lon="5.68801">
        <ele>205.859497</ele>
        <time>2013-04-04T12:57:05Z</time>
      </trkpt>
      <trkpt lat="47.24516" lon="5.68805">
        <ele>206.340088</ele>
        <time>2013-04-04T12:57:08Z</time>
      </trkpt>
      <trkpt lat="47.24519" lon="5.6881">
        <ele>205.859497</ele>
        <time>2013-04-04T12:57:12Z</time>
      </trkpt>
      <trkpt lat="47.2452" lon="5.68813">
        <ele>206.340088</ele>
        <time>2013-04-04T12:57:14Z</time>
      </trkpt>
      <trkpt lat="47.24531" lon="5.68833">
        <ele>206.340088</ele>
        <time>2013-04-04T12:57:28Z</time>
      </trkpt>
      <trkpt lat="47.24524" lon="5.68845">
        <ele>206.340088</ele>
        <time>2013-04-04T12:57:33Z</time>
      </trkpt>
      <trkpt lat="47.24517" lon="5.68873">
        <ele>206.820679</ele>
        <time>2013-04-04T12:57:52Z</time>
      </trkpt>
      <trkpt lat="47.24505" lon="5.68899">
        <ele>207.301392</ele>
        <time>2013-04-04T12:58:09Z</time>
      </trkpt>
      <trkpt lat="47.24493" lon="5.68925">
        <ele>207.782104</ele>
        <time>2013-04-04T12:58:25Z</time>
      </trkpt>
      <trkpt lat="47.24472" lon="5.68933">
        <ele>207.301392</ele>
        <time>2013-04-04T12:58:45Z</time>
      </trkpt>
      <trkpt lat="47.24459" lon="5.68936">
        <ele>207.782104</ele>
        <time>2013-04-04T12:58:56Z</time>
      </trkpt>
      <trkpt lat="47.24436" lon="5.68942">
        <ele>208.262817</ele>
        <time>2013-04-04T12:59:14Z</time>
      </trkpt>
      <trkpt lat="47.24432" lon="5.6894">
        <ele>208.262817</ele>
        <time>2013-04-04T12:59:17Z</time>
      </trkpt>
      <trkpt lat="47.24404" lon="5.68949">
        <ele>209.224121</ele>
        <time>2013-04-04T12:59:39Z</time>
      </trkpt>
      <trkpt lat="47.24379" lon="5.68959">
        <ele>210.185425</ele>
        <time>2013-04-04T13:00:01Z</time>
      </trkpt>
      <trkpt lat="47.24351" lon="5.6898">
        <ele>211.146729</ele>
        <time>2013-04-04T13:00:27Z</time>
      </trkpt>
      <trkpt lat="47.24323" lon="5.69005">
        <ele>212.588623</ele>
        <time>2013-04-04T13:00:54Z</time>
      </trkpt>
      <trkpt lat="47.24299" lon="5.69032">
        <ele>213.069336</ele>
        <time>2013-04-04T13:01:15Z</time>
      </trkpt>
      <trkpt lat="47.24277" lon="5.69049">
        <ele>214.03064</ele>
        <time>2013-04-04T13:01:35Z</time>
      </trkpt>
      <trkpt lat="47.24269" lon="5.69056">
        <ele>215.953247</ele>
        <time>2013-04-04T13:01:44Z</time>
      </trkpt>
      <trkpt lat="47.24271" lon="5.69088">
        <ele>218.83728</ele>
        <time>2013-04-04T13:02:05Z</time>
      </trkpt>
      <trkpt lat="47.24272" lon="5.6909">
        <ele>219.317993</ele>
        <time>2013-04-04T13:02:07Z</time>
      </trkpt>
      <trkpt lat="47.24275" lon="5.69105">
        <ele>220.759888</ele>
        <time>2013-04-04T13:02:18Z</time>
      </trkpt>
      <trkpt lat="47.24268" lon="5.6913">
        <ele>222.682495</ele>
        <time>2013-04-04T13:02:34Z</time>
      </trkpt>
      <trkpt lat="47.24261" lon="5.69158">
        <ele>224.124512</ele>
        <time>2013-04-04T13:02:49Z</time>
      </trkpt>
      <trkpt lat="47.24255" lon="5.69178">
        <ele>224.124512</ele>
        <time>2013-04-04T13:03:00Z</time>
      </trkpt>
      <trkpt lat="47.24248" lon="5.69202">
        <ele>225.085938</ele>
        <time>2013-04-04T13:03:17Z</time>
      </trkpt>
      <trkpt lat="47.2424" lon="5.69204">
        <ele>225.085938</ele>
        <time>2013-04-04T13:03:27Z</time>
      </trkpt>
      <trkpt lat="47.24233" lon="5.69205">
        <ele>225.566528</ele>
        <time>2013-04-04T13:03:32Z</time>
      </trkpt>
      <trkpt lat="47.24217" lon="5.69203">
        <ele>226.047119</ele>
        <time>2013-04-04T13:03:46Z</time>
      </trkpt>
      <trkpt lat="47.24204" lon="5.69202">
        <ele>226.527832</ele>
        <time>2013-04-04T13:03:57Z</time>
      </trkpt>
      <trkpt lat="47.24194" lon="5.69201">
        <ele>227.489136</ele>
        <time>2013-04-04T13:04:09Z</time>
      </trkpt>
      <trkpt lat="47.24178" lon="5.69199">
        <ele>229.411743</ele>
        <time>2013-04-04T13:04:28Z</time>
      </trkpt>
      <trkpt lat="47.24158" lon="5.69198">
        <ele>232.295776</ele>
        <time>2013-04-04T13:04:52Z</time>
      </trkpt>
      <trkpt lat="47.24141" lon="5.692">
        <ele>234.218384</ele>
        <time>2013-04-04T13:05:09Z</time>
      </trkpt>
      <trkpt lat="47.24123" lon="5.69212">
        <ele>237.102295</ele>
        <time>2013-04-04T13:05:29Z</time>
      </trkpt>
      <trkpt lat="47.24107" lon="5.69216">
        <ele>239.024902</ele>
        <time>2013-04-04T13:05:47Z</time>
      </trkpt>
      <trkpt lat="47.24095" lon="5.69219">
        <ele>239.986206</ele>
        <time>2013-04-04T13:05:59Z</time>
      </trkpt>
      <trkpt lat="47.24082" lon="5.69216">
        <ele>240.947632</ele>
        <time>2013-04-04T13:06:12Z</time>
      </trkpt>
      <trkpt lat="47.2406" lon="5.69214">
        <ele>243.35083</ele>
        <time>2013-04-04T13:06:32Z</time>
      </trkpt>
      <trkpt lat="47.24047" lon="5.69217">
        <ele>245.273438</ele>
        <time>2013-04-04T13:06:50Z</time>
      </trkpt>
      <trkpt lat="47.24023" lon="5.69212">
        <ele>248.157593</ele>
        <time>2013-04-04T13:07:11Z</time>
      </trkpt>
      <trkpt lat="47.24009" lon="5.69211">
        <ele>249.599487</ele>
        <time>2013-04-04T13:07:26Z</time>
      </trkpt>
      <trkpt lat="47.2399" lon="5.69212">
        <ele>251.522095</ele>
        <time>2013-04-04T13:07:44Z</time>
      </trkpt>
      <trkpt lat="47.23979" lon="5.69217">
        <ele>253.444702</ele>
        <time>2013-04-04T13:07:59Z</time>
      </trkpt>
      <trkpt lat="47.23966" lon="5.69232">
        <ele>256.328735</ele>
        <time>2013-04-04T13:08:18Z</time>
      </trkpt>
      <trkpt lat="47.23947" lon="5.6924">
        <ele>259.212646</ele>
        <time>2013-04-04T13:08:41Z</time>
      </trkpt>
      <trkpt lat="47.23933" lon="5.69247">
        <ele>261.615967</ele>
        <time>2013-04-04T13:09:00Z</time>
      </trkpt>
      <trkpt lat="47.23924" lon="5.69257">
        <ele>264.019287</ele>
        <time>2013-04-04T13:09:19Z</time>
      </trkpt>
      <trkpt lat="47.23917" lon="5.69271">
        <ele>266.422485</ele>
        <time>2013-04-04T13:09:37Z</time>
      </trkpt>
      <trkpt lat="47.23899" lon="5.69274">
        <ele>268.345093</ele>
        <time>2013-04-04T13:09:57Z</time>
      </trkpt>
      <trkpt lat="47.23896" lon="5.69272">
        <ele>268.825806</ele>
        <time>2013-04-04T13:10:02Z</time>
      </trkpt>
      <trkpt lat="47.23883" lon="5.69269">
        <ele>270.748413</ele>
        <time>2013-04-04T13:10:19Z</time>
      </trkpt>
      <trkpt lat="47.23862" lon="5.69268">
        <ele>273.632446</ele>
        <time>2013-04-04T13:10:46Z</time>
      </trkpt>
      <trkpt lat="47.23846" lon="5.69269">
        <ele>276.516357</ele>
        <time>2013-04-04T13:11:07Z</time>
      </trkpt>
      <trkpt lat="47.23839" lon="5.69283">
        <ele>278.919678</ele>
        <time>2013-04-04T13:11:25Z</time>
      </trkpt>
      <trkpt lat="47.23836" lon="5.69289">
        <ele>279.880859</ele>
        <time>2013-04-04T13:11:45Z</time>
      </trkpt>
      <trkpt lat="47.23835" lon="5.6929">
        <ele>279.400269</ele>
        <time>2013-04-04T13:13:43Z</time>
      </trkpt>
      <trkpt lat="47.23838" lon="5.69293">
        <ele>279.880859</ele>
        <time>2013-04-04T13:15:11Z</time>
      </trkpt>
      <trkpt lat="47.23854" lon="5.69304">
        <ele>279.400269</ele>
        <time>2013-04-04T13:15:28Z</time>
      </trkpt>
      <trkpt lat="47.23864" lon="5.6932">
        <ele>279.400269</ele>
        <time>2013-04-04T13:15:43Z</time>
      </trkpt>
      <trkpt lat="47.23881" lon="5.69338">
        <ele>278.919678</ele>
        <time>2013-04-04T13:15:59Z</time>
      </trkpt>
      <trkpt lat="47.23884" lon="5.69342">
        <ele>278.919678</ele>
        <time>2013-04-04T13:16:02Z</time>
      </trkpt>
      <trkpt lat="47.23892" lon="5.69349">
        <ele>278.919678</ele>
        <time>2013-04-04T13:16:09Z</time>
      </trkpt>
      <trkpt lat="47.23906" lon="5.69364">
        <ele>277.958252</ele>
        <time>2013-04-04T13:16:23Z</time>
      </trkpt>
      <trkpt lat="47.23914" lon="5.69368">
        <ele>276.516357</ele>
        <time>2013-04-04T13:16:33Z</time>
      </trkpt>
      <trkpt lat="47.23931" lon="5.69385">
        <ele>275.555054</ele>
        <time>2013-04-04T13:16:47Z</time>
      </trkpt>
      <trkpt lat="47.23947" lon="5.69404">
        <ele>275.555054</ele>
        <time>2013-04-04T13:17:03Z</time>
      </trkpt>
      <trkpt lat="47.23948" lon="5.69405">
        <ele>275.555054</ele>
        <time>2013-04-04T13:17:04Z</time>
      </trkpt>
      <trkpt lat="47.23968" lon="5.6943">
        <ele>274.113037</ele>
        <time>2013-04-04T13:17:24Z</time>
      </trkpt>
      <trkpt lat="47.23972" lon="5.69438">
        <ele>274.113037</ele>
        <time>2013-04-04T13:17:28Z</time>
      </trkpt>
      <trkpt lat="47.23974" lon="5.69443">
        <ele>274.113037</ele>
        <time>2013-04-04T13:17:31Z</time>
      </trkpt>
      <trkpt lat="47.23979" lon="5.69448">
        <ele>274.113037</ele>
        <time>2013-04-04T13:17:35Z</time>
      </trkpt>
      <trkpt lat="47.23985" lon="5.69459">
        <ele>273.632446</ele>
        <time>2013-04-04T13:17:44Z</time>
      </trkpt>
      <trkpt lat="47.23998" lon="5.69471">
        <ele>272.19043</ele>
        <time>2013-04-04T13:17:57Z</time>
      </trkpt>
      <trkpt lat="47.24017" lon="5.69493">
        <ele>270.748413</ele>
        <time>2013-04-04T13:18:15Z</time>
      </trkpt>
      <trkpt lat="47.24026" lon="5.69506">
        <ele>270.748413</ele>
        <time>2013-04-04T13:18:28Z</time>
      </trkpt>
      <trkpt lat="47.24032" lon="5.69523">
        <ele>269.787109</ele>
        <time>2013-04-04T13:18:42Z</time>
      </trkpt>
      <trkpt lat="47.24039" lon="5.69532">
        <ele>269.306519</ele>
        <time>2013-04-04T13:18:51Z</time>
      </trkpt>
      <trkpt lat="47.24044" lon="5.6954">
        <ele>268.825806</ele>
        <time>2013-04-04T13:18:56Z</time>
      </trkpt>
      <trkpt lat="47.24052" lon="5.69554">
        <ele>268.825806</ele>
        <time>2013-04-04T13:19:05Z</time>
      </trkpt>
      <trkpt lat="47.24054" lon="5.69558">
        <ele>268.825806</ele>
        <time>2013-04-04T13:19:09Z</time>
      </trkpt>
      <trkpt lat="47.24057" lon="5.69562">
        <ele>268.825806</ele>
        <time>2013-04-04T13:19:12Z</time>
      </trkpt>
      <trkpt lat="47.24064" lon="5.69571">
        <ele>268.345093</ele>
        <time>2013-04-04T13:19:19Z</time>
      </trkpt>
      <trkpt lat="47.24078" lon="5.69585">
        <ele>267.383911</ele>
        <time>2013-04-04T13:19:33Z</time>
      </trkpt>
      <trkpt lat="47.24081" lon="5.69589">
        <ele>266.903198</ele>
        <time>2013-04-04T13:19:37Z</time>
      </trkpt>
      <trkpt lat="47.24098" lon="5.69607">
        <ele>265.461304</ele>
        <time>2013-04-04T13:19:54Z</time>
      </trkpt>
      <trkpt lat="47.2411" lon="5.69619">
        <ele>264.980591</ele>
        <time>2013-04-04T13:20:07Z</time>
      </trkpt>
      <trkpt lat="47.24114" lon="5.69625">
        <ele>264.980591</ele>
        <time>2013-04-04T13:20:11Z</time>
      </trkpt>
      <trkpt lat="47.24118" lon="5.69631">
        <ele>264.980591</ele>
        <time>2013-04-04T13:20:15Z</time>
      </trkpt>
      <trkpt lat="47.24126" lon="5.6964">
        <ele>264.499878</ele>
        <time>2013-04-04T13:20:23Z</time>
      </trkpt>
      <trkpt lat="47.24136" lon="5.69656">
        <ele>264.980591</ele>
        <time>2013-04-04T13:20:36Z</time>
      </trkpt>
      <trkpt lat="47.2415" lon="5.69675">
        <ele>264.499878</ele>
        <time>2013-04-04T13:20:50Z</time>
      </trkpt>
      <trkpt lat="47.2416" lon="5.69688">
        <ele>264.499878</ele>
        <time>2013-04-04T13:21:03Z</time>
      </trkpt>
      <trkpt lat="47.24163" lon="5.69694">
        <ele>264.499878</ele>
        <time>2013-04-04T13:21:07Z</time>
      </trkpt>
      <trkpt lat="47.24166" lon="5.69696">
        <ele>264.980591</ele>
        <time>2013-04-04T13:21:11Z</time>
      </trkpt>
      <trkpt lat="47.24167" lon="5.69698">
        <ele>264.499878</ele>
        <time>2013-04-04T13:21:15Z</time>
      </trkpt>
      <trkpt lat="47.24172" lon="5.69704">
        <ele>264.499878</ele>
        <time>2013-04-04T13:21:17Z</time>
      </trkpt>
      <trkpt lat="47.24185" lon="5.69731">
        <ele>264.980591</ele>
        <time>2013-04-04T13:21:32Z</time>
      </trkpt>
      <trkpt lat="47.24194" lon="5.69751">
        <ele>265.941895</ele>
        <time>2013-04-04T13:21:47Z</time>
      </trkpt>
      <trkpt lat="47.24211" lon="5.6977">
        <ele>264.980591</ele>
        <time>2013-04-04T13:22:03Z</time>
      </trkpt>
      <trkpt lat="47.2422" lon="5.69781">
        <ele>264.980591</ele>
        <time>2013-04-04T13:22:16Z</time>
      </trkpt>
      <trkpt lat="47.24235" lon="5.69791">
        <ele>264.499878</ele>
        <time>2013-04-04T13:22:32Z</time>
      </trkpt>
      <trkpt lat="47.24247" lon="5.69801">
        <ele>264.019287</ele>
        <time>2013-04-04T13:22:46Z</time>
      </trkpt>
      <trkpt lat="47.24258" lon="5.69805">
        <ele>263.057861</ele>
        <time>2013-04-04T13:22:56Z</time>
      </trkpt>
      <trkpt lat="47.24271" lon="5.69815">
        <ele>262.577148</ele>
        <time>2013-04-04T13:23:09Z</time>
      </trkpt>
      <trkpt lat="47.24298" lon="5.69814">
        <ele>261.615967</ele>
        <time>2013-04-04T13:23:26Z</time>
      </trkpt>
      <trkpt lat="47.24306" lon="5.69813">
        <ele>260.654541</ele>
        <time>2013-04-04T13:23:31Z</time>
      </trkpt>
      <trkpt lat="47.24323" lon="5.69815">
        <ele>258.731934</ele>
        <time>2013-04-04T13:23:46Z</time>
      </trkpt>
      <trkpt lat="47.24343" lon="5.69816">
        <ele>258.251343</ele>
        <time>2013-04-04T13:23:57Z</time>
      </trkpt>
      <trkpt lat="47.24364" lon="5.69815">
        <ele>256.328735</ele>
        <time>2013-04-04T13:24:13Z</time>
      </trkpt>
      <trkpt lat="47.24382" lon="5.69818">
        <ele>254.406006</ele>
        <time>2013-04-04T13:24:29Z</time>
      </trkpt>
      <trkpt lat="47.24415" lon="5.69821">
        <ele>251.041382</ele>
        <time>2013-04-04T13:24:55Z</time>
      </trkpt>
      <trkpt lat="47.24441" lon="5.69821">
        <ele>249.118774</ele>
        <time>2013-04-04T13:25:15Z</time>
      </trkpt>
      <trkpt lat="47.24473" lon="5.69827">
        <ele>246.715454</ele>
        <time>2013-04-04T13:25:39Z</time>
      </trkpt>
      <trkpt lat="47.24493" lon="5.69833">
        <ele>244.792847</ele>
        <time>2013-04-04T13:25:58Z</time>
      </trkpt>
      <trkpt lat="47.24509" lon="5.69829">
        <ele>243.35083</ele>
        <time>2013-04-04T13:26:14Z</time>
      </trkpt>
      <trkpt lat="47.24523" lon="5.69822">
        <ele>241.908936</ele>
        <time>2013-04-04T13:26:24Z</time>
      </trkpt>
      <trkpt lat="47.24528" lon="5.6982">
        <ele>240.947632</ele>
        <time>2013-04-04T13:26:28Z</time>
      </trkpt>
      <trkpt lat="47.24544" lon="5.69812">
        <ele>239.024902</ele>
        <time>2013-04-04T13:26:42Z</time>
      </trkpt>
      <trkpt lat="47.24564" lon="5.69797">
        <ele>237.102295</ele>
        <time>2013-04-04T13:27:03Z</time>
      </trkpt>
      <trkpt lat="47.24588" lon="5.69775">
        <ele>234.218384</ele>
        <time>2013-04-04T13:27:27Z</time>
      </trkpt>
      <trkpt lat="47.24613" lon="5.69755">
        <ele>231.814941</ele>
        <time>2013-04-04T13:27:50Z</time>
      </trkpt>
      <trkpt lat="47.24642" lon="5.69725">
        <ele>229.892334</ele>
        <time>2013-04-04T13:28:17Z</time>
      </trkpt>
      <trkpt lat="47.24667" lon="5.69719">
        <ele>227.969727</ele>
        <time>2013-04-04T13:28:40Z</time>
      </trkpt>
      <trkpt lat="47.24668" lon="5.69722">
        <ele>227.969727</ele>
        <time>2013-04-04T13:28:42Z</time>
      </trkpt>
      <trkpt lat="47.2467" lon="5.69729">
        <ele>227.969727</ele>
        <time>2013-04-04T13:28:48Z</time>
      </trkpt>
      <trkpt lat="47.24673" lon="5.69741">
        <ele>227.969727</ele>
        <time>2013-04-04T13:28:54Z</time>
      </trkpt>
      <trkpt lat="47.24679" lon="5.69754">
        <ele>228.450439</ele>
        <time>2013-04-04T13:29:00Z</time>
      </trkpt>
      <trkpt lat="47.24693" lon="5.69781">
        <ele>228.931152</ele>
        <time>2013-04-04T13:29:19Z</time>
      </trkpt>
      <trkpt lat="47.2471" lon="5.69821">
        <ele>227.969727</ele>
        <time>2013-04-04T13:29:44Z</time>
      </trkpt>
      <trkpt lat="47.24711" lon="5.69825">
        <ele>227.489136</ele>
        <time>2013-04-04T13:29:47Z</time>
      </trkpt>
      <trkpt lat="47.24722" lon="5.69863">
        <ele>227.008545</ele>
        <time>2013-04-04T13:30:07Z</time>
      </trkpt>
      <trkpt lat="47.24724" lon="5.69879">
        <ele>226.527832</ele>
        <time>2013-04-04T13:30:16Z</time>
      </trkpt>
      <trkpt lat="47.2473" lon="5.699">
        <ele>225.566528</ele>
        <time>2013-04-04T13:30:31Z</time>
      </trkpt>
      <trkpt lat="47.24729" lon="5.69928">
        <ele>224.124512</ele>
        <time>2013-04-04T13:30:44Z</time>
      </trkpt>
      <trkpt lat="47.2473" lon="5.69963">
        <ele>222.201782</ele>
        <time>2013-04-04T13:31:02Z</time>
      </trkpt>
      <trkpt lat="47.24734" lon="5.69999">
        <ele>219.798584</ele>
        <time>2013-04-04T13:31:23Z</time>
      </trkpt>
      <trkpt lat="47.24741" lon="5.70029">
        <ele>218.83728</ele>
        <time>2013-04-04T13:31:36Z</time>
      </trkpt>
      <trkpt lat="47.24743" lon="5.70035">
        <ele>218.83728</ele>
        <time>2013-04-04T13:31:40Z</time>
      </trkpt>
      <trkpt lat="47.24746" lon="5.70042">
        <ele>218.356567</ele>
        <time>2013-04-04T13:31:44Z</time>
      </trkpt>
      <trkpt lat="47.2475" lon="5.7006">
        <ele>217.875977</ele>
        <time>2013-04-04T13:31:54Z</time>
      </trkpt>
      <trkpt lat="47.24752" lon="5.70064">
        <ele>217.395386</ele>
        <time>2013-04-04T13:31:57Z</time>
      </trkpt>
      <trkpt lat="47.24756" lon="5.70071">
        <ele>217.395386</ele>
        <time>2013-04-04T13:32:01Z</time>
      </trkpt>
      <trkpt lat="47.2476" lon="5.70083">
        <ele>216.43396</ele>
        <time>2013-04-04T13:32:09Z</time>
      </trkpt>
      <trkpt lat="47.24767" lon="5.70095">
        <ele>215.953247</ele>
        <time>2013-04-04T13:32:17Z</time>
      </trkpt>
      <trkpt lat="47.24776" lon="5.70119">
        <ele>214.03064</ele>
        <time>2013-04-04T13:32:36Z</time>
      </trkpt>
      <trkpt lat="47.24779" lon="5.70118">
        <ele>213.550049</ele>
        <time>2013-04-04T13:32:43Z</time>
      </trkpt>
      <trkpt lat="47.24791" lon="5.70138">
        <ele>211.627441</ele>
        <time>2013-04-04T13:32:57Z</time>
      </trkpt>
      <trkpt lat="47.24798" lon="5.70131">
        <ele>211.146729</ele>
        <time>2013-04-04T13:33:06Z</time>
      </trkpt>
      <trkpt lat="47.24824" lon="5.70129">
        <ele>210.185425</ele>
        <time>2013-04-04T13:33:22Z</time>
      </trkpt>
      <trkpt lat="47.24843" lon="5.70137">
        <ele>209.224121</ele>
        <time>2013-04-04T13:33:35Z</time>
      </trkpt>
      <trkpt lat="47.24867" lon="5.70143">
        <ele>208.743408</ele>
        <time>2013-04-04T13:33:51Z</time>
      </trkpt>
      <trkpt lat="47.24894" lon="5.70146">
        <ele>208.262817</ele>
        <time>2013-04-04T13:34:03Z</time>
      </trkpt>
      <trkpt lat="47.24902" lon="5.70167">
        <ele>208.743408</ele>
        <time>2013-04-04T13:34:16Z</time>
      </trkpt>
      <trkpt lat="47.24922" lon="5.70194">
        <ele>208.262817</ele>
        <time>2013-04-04T13:34:31Z</time>
      </trkpt>
      <trkpt lat="47.24932" lon="5.70219">
        <ele>208.262817</ele>
        <time>2013-04-04T13:34:46Z</time>
      </trkpt>
      <trkpt lat="47.24942" lon="5.70242">
        <ele>208.262817</ele>
        <time>2013-04-04T13:35:02Z</time>
      </trkpt>
      <trkpt lat="47.24945" lon="5.70254">
        <ele>208.262817</ele>
        <time>2013-04-04T13:35:10Z</time>
      </trkpt>
      <trkpt lat="47.24957" lon="5.70273">
        <ele>208.262817</ele>
        <time>2013-04-04T13:35:24Z</time>
      </trkpt>
      <trkpt lat="47.24957" lon="5.70276">
        <ele>208.743408</ele>
        <time>2013-04-04T13:35:26Z</time>
      </trkpt>
      <trkpt lat="47.24959" lon="5.70281">
        <ele>208.262817</ele>
        <time>2013-04-04T13:35:29Z</time>
      </trkpt>
      <trkpt lat="47.24957" lon="5.70305">
        <ele>209.224121</ele>
        <time>2013-04-04T13:35:44Z</time>
      </trkpt>
      <trkpt lat="47.2495" lon="5.70311">
        <ele>209.224121</ele>
        <time>2013-04-04T13:35:48Z</time>
      </trkpt>
      <trkpt lat="47.24942" lon="5.70321">
        <ele>210.185425</ele>
        <time>2013-04-04T13:36:01Z</time>
      </trkpt>
      <trkpt lat="47.24931" lon="5.70344">
        <ele>211.627441</ele>
        <time>2013-04-04T13:36:16Z</time>
      </trkpt>
      <trkpt lat="47.24916" lon="5.70362">
        <ele>212.588623</ele>
        <time>2013-04-04T13:36:28Z</time>
      </trkpt>
      <trkpt lat="47.24918" lon="5.70362">
        <ele>212.588623</ele>
        <time>2013-04-04T13:36:46Z</time>
      </trkpt>
      <trkpt lat="47.2492" lon="5.7036">
        <ele>212.588623</ele>
        <time>2013-04-04T13:36:58Z</time>
      </trkpt>
      <trkpt lat="47.24927" lon="5.70341">
        <ele>211.146729</ele>
        <time>2013-04-04T13:37:20Z</time>
      </trkpt>
      <trkpt lat="47.24926" lon="5.70338">
        <ele>211.146729</ele>
        <time>2013-04-04T13:37:50Z</time>
      </trkpt>
      <trkpt lat="47.24918" lon="5.70332">
        <ele>211.146729</ele>
        <time>2013-04-04T13:37:59Z</time>
      </trkpt>
      <trkpt lat="47.24907" lon="5.70329">
        <ele>212.108032</ele>
        <time>2013-04-04T13:38:11Z</time>
      </trkpt>
      <trkpt lat="47.24897" lon="5.70327">
        <ele>212.588623</ele>
        <time>2013-04-04T13:38:19Z</time>
      </trkpt>
      <trkpt lat="47.24886" lon="5.70321">
        <ele>213.069336</ele>
        <time>2013-04-04T13:38:28Z</time>
      </trkpt>
      <trkpt lat="47.24865" lon="5.70313">
        <ele>213.550049</ele>
        <time>2013-04-04T13:38:42Z</time>
      </trkpt>
      <trkpt lat="47.24861" lon="5.7031">
        <ele>213.550049</ele>
        <time>2013-04-04T13:38:46Z</time>
      </trkpt>
      <trkpt lat="47.24841" lon="5.70313">
        <ele>213.550049</ele>
        <time>2013-04-04T13:39:02Z</time>
      </trkpt>
      <trkpt lat="47.24841" lon="5.70314">
        <ele>214.03064</ele>
        <time>2013-04-04T13:39:03Z</time>
      </trkpt>
      <trkpt lat="47.24827" lon="5.7033">
        <ele>214.51123</ele>
        <time>2013-04-04T13:39:18Z</time>
      </trkpt>
      <trkpt lat="47.24816" lon="5.70349">
        <ele>214.991943</ele>
        <time>2013-04-04T13:39:30Z</time>
      </trkpt>
      <trkpt lat="47.24809" lon="5.70365">
        <ele>215.472656</ele>
        <time>2013-04-04T13:39:43Z</time>
      </trkpt>
      <trkpt lat="47.24804" lon="5.70384">
        <ele>216.43396</ele>
        <time>2013-04-04T13:39:54Z</time>
      </trkpt>
      <trkpt lat="47.24804" lon="5.70408">
        <ele>216.43396</ele>
        <time>2013-04-04T13:40:07Z</time>
      </trkpt>
      <trkpt lat="47.24808" lon="5.70434">
        <ele>216.914673</ele>
        <time>2013-04-04T13:40:20Z</time>
      </trkpt>
      <trkpt lat="47.24802" lon="5.7046">
        <ele>217.395386</ele>
        <time>2013-04-04T13:40:35Z</time>
      </trkpt>
      <trkpt lat="47.24794" lon="5.7048">
        <ele>217.875977</ele>
        <time>2013-04-04T13:40:49Z</time>
      </trkpt>
      <trkpt lat="47.24784" lon="5.70497">
        <ele>217.875977</ele>
        <time>2013-04-04T13:41:03Z</time>
      </trkpt>
      <trkpt lat="47.24774" lon="5.7051">
        <ele>218.83728</ele>
        <time>2013-04-04T13:41:13Z</time>
      </trkpt>
      <trkpt lat="47.2477" lon="5.70514">
        <ele>219.317993</ele>
        <time>2013-04-04T13:41:26Z</time>
      </trkpt>
      <trkpt lat="47.24767" lon="5.70521">
        <ele>219.798584</ele>
        <time>2013-04-04T13:41:40Z</time>
      </trkpt>
      <trkpt lat="47.24758" lon="5.70529">
        <ele>220.279175</ele>
        <time>2013-04-04T13:42:42Z</time>
      </trkpt>
      <trkpt lat="47.24747" lon="5.70542">
        <ele>221.721191</ele>
        <time>2013-04-04T13:42:54Z</time>
      </trkpt>
      <trkpt lat="47.24736" lon="5.70553">
        <ele>222.682495</ele>
        <time>2013-04-04T13:43:06Z</time>
      </trkpt>
      <trkpt lat="47.24723" lon="5.7057">
        <ele>224.124512</ele>
        <time>2013-04-04T13:43:19Z</time>
      </trkpt>
      <trkpt lat="47.2471" lon="5.70582">
        <ele>226.047119</ele>
        <time>2013-04-04T13:43:35Z</time>
      </trkpt>
      <trkpt lat="47.24703" lon="5.70587">
        <ele>227.008545</ele>
        <time>2013-04-04T13:43:42Z</time>
      </trkpt>
      <trkpt lat="47.24696" lon="5.70589">
        <ele>227.489136</ele>
        <time>2013-04-04T13:43:47Z</time>
      </trkpt>
      <trkpt lat="47.24683" lon="5.70602">
        <ele>229.892334</ele>
        <time>2013-04-04T13:44:02Z</time>
      </trkpt>
      <trkpt lat="47.2467" lon="5.70619">
        <ele>232.776489</ele>
        <time>2013-04-04T13:44:19Z</time>
      </trkpt>
      <trkpt lat="47.2466" lon="5.70635">
        <ele>234.699097</ele>
        <time>2013-04-04T13:44:33Z</time>
      </trkpt>
      <trkpt lat="47.24655" lon="5.70647">
        <ele>236.140991</ele>
        <time>2013-04-04T13:44:43Z</time>
      </trkpt>
      <trkpt lat="47.2464" lon="5.70665">
        <ele>238.544312</ele>
        <time>2013-04-04T13:44:59Z</time>
      </trkpt>
      <trkpt lat="47.2463" lon="5.70677">
        <ele>240.467041</ele>
        <time>2013-04-04T13:45:12Z</time>
      </trkpt>
      <trkpt lat="47.24623" lon="5.70692">
        <ele>242.389648</ele>
        <time>2013-04-04T13:45:23Z</time>
      </trkpt>
      <trkpt lat="47.24618" lon="5.70722">
        <ele>245.75415</ele>
        <time>2013-04-04T13:45:43Z</time>
      </trkpt>
      <trkpt lat="47.24619" lon="5.70729">
        <ele>246.234863</ele>
        <time>2013-04-04T13:45:47Z</time>
      </trkpt>
      <trkpt lat="47.24614" lon="5.70752">
        <ele>247.676758</ele>
        <time>2013-04-04T13:46:02Z</time>
      </trkpt>
      <trkpt lat="47.24613" lon="5.70775">
        <ele>249.599487</ele>
        <time>2013-04-04T13:46:16Z</time>
      </trkpt>
      <trkpt lat="47.2461" lon="5.70788">
        <ele>250.560791</ele>
        <time>2013-04-04T13:46:23Z</time>
      </trkpt>
      <trkpt lat="47.24609" lon="5.70797">
        <ele>251.522095</ele>
        <time>2013-04-04T13:46:29Z</time>
      </trkpt>
      <trkpt lat="47.2461" lon="5.70803">
        <ele>252.002808</ele>
        <time>2013-04-04T13:46:32Z</time>
      </trkpt>
      <trkpt lat="47.2461" lon="5.70807">
        <ele>252.483398</ele>
        <time>2013-04-04T13:46:35Z</time>
      </trkpt>
      <trkpt lat="47.24609" lon="5.70813">
        <ele>252.963989</ele>
        <time>2013-04-04T13:46:39Z</time>
      </trkpt>
      <trkpt lat="47.24605" lon="5.70822">
        <ele>253.925415</ele>
        <time>2013-04-04T13:46:46Z</time>
      </trkpt>
      <trkpt lat="47.24593" lon="5.70838">
        <ele>255.848022</ele>
        <time>2013-04-04T13:47:01Z</time>
      </trkpt>
      <trkpt lat="47.24583" lon="5.70851">
        <ele>258.251343</ele>
        <time>2013-04-04T13:47:13Z</time>
      </trkpt>
      <trkpt lat="47.2457" lon="5.70863">
        <ele>259.693359</ele>
        <time>2013-04-04T13:47:25Z</time>
      </trkpt>
      <trkpt lat="47.24563" lon="5.70874">
        <ele>262.096558</ele>
        <time>2013-04-04T13:47:39Z</time>
      </trkpt>
      <trkpt lat="47.2455" lon="5.70894">
        <ele>264.499878</ele>
        <time>2013-04-04T13:47:54Z</time>
      </trkpt>
      <trkpt lat="47.2454" lon="5.70909">
        <ele>266.903198</ele>
        <time>2013-04-04T13:48:09Z</time>
      </trkpt>
      <trkpt lat="47.24529" lon="5.70929">
        <ele>269.306519</ele>
        <time>2013-04-04T13:48:23Z</time>
      </trkpt>
      <trkpt lat="47.2452" lon="5.70945">
        <ele>271.229126</ele>
        <time>2013-04-04T13:48:38Z</time>
      </trkpt>
      <trkpt lat="47.24516" lon="5.70967">
        <ele>274.113037</ele>
        <time>2013-04-04T13:48:55Z</time>
      </trkpt>
      <trkpt lat="47.24513" lon="5.70973">
        <ele>275.074463</ele>
        <time>2013-04-04T13:49:00Z</time>
      </trkpt>
      <trkpt lat="47.24506" lon="5.70991">
        <ele>277.477661</ele>
        <time>2013-04-04T13:49:13Z</time>
      </trkpt>
      <trkpt lat="47.24505" lon="5.70995">
        <ele>278.438965</ele>
        <time>2013-04-04T13:49:17Z</time>
      </trkpt>
      <trkpt lat="47.24496" lon="5.71018">
        <ele>280.842407</ele>
        <time>2013-04-04T13:49:31Z</time>
      </trkpt>
      <trkpt lat="47.24488" lon="5.71036">
        <ele>282.284302</ele>
        <time>2013-04-04T13:49:43Z</time>
      </trkpt>
      <trkpt lat="47.24481" lon="5.71042">
        <ele>283.245605</ele>
        <time>2013-04-04T13:49:47Z</time>
      </trkpt>
      <trkpt lat="47.24473" lon="5.71054">
        <ele>284.687622</ele>
        <time>2013-04-04T13:49:56Z</time>
      </trkpt>
      <trkpt lat="47.24462" lon="5.7107">
        <ele>286.129517</ele>
        <time>2013-04-04T13:50:11Z</time>
      </trkpt>
      <trkpt lat="47.24459" lon="5.71073">
        <ele>286.129517</ele>
        <time>2013-04-04T13:50:44Z</time>
      </trkpt>
      <trkpt lat="47.24459" lon="5.71069">
        <ele>286.129517</ele>
        <time>2013-04-04T13:50:56Z</time>
      </trkpt>
      <trkpt lat="47.2446" lon="5.71069">
        <ele>285.648804</ele>
        <time>2013-04-04T13:52:39Z</time>
      </trkpt>
      <trkpt lat="47.24461" lon="5.71067">
        <ele>285.648804</ele>
        <time>2013-04-04T13:53:43Z</time>
      </trkpt>
      <trkpt lat="47.2446" lon="5.71068">
        <ele>286.129517</ele>
        <time>2013-04-04T14:01:02Z</time>
      </trkpt>
      <trkpt lat="47.24451" lon="5.71065">
        <ele>287.09082</ele>
        <time>2013-04-04T14:01:18Z</time>
      </trkpt>
      <trkpt lat="47.24439" lon="5.71066">
        <ele>289.01355</ele>
        <time>2013-04-04T14:01:33Z</time>
      </trkpt>
      <trkpt lat="47.24423" lon="5.71058">
        <ele>290.455566</ele>
        <time>2013-04-04T14:01:53Z</time>
      </trkpt>
      <trkpt lat="47.24405" lon="5.7106">
        <ele>292.378174</ele>
        <time>2013-04-04T14:02:11Z</time>
      </trkpt>
      <trkpt lat="47.24384" lon="5.71068">
        <ele>294.781372</ele>
        <time>2013-04-04T14:02:31Z</time>
      </trkpt>
      <trkpt lat="47.24372" lon="5.7108">
        <ele>296.704102</ele>
        <time>2013-04-04T14:02:48Z</time>
      </trkpt>
      <trkpt lat="47.24362" lon="5.71089">
        <ele>298.626709</ele>
        <time>2013-04-04T14:03:01Z</time>
      </trkpt>
      <trkpt lat="47.24349" lon="5.71097">
        <ele>300.549316</ele>
        <time>2013-04-04T14:03:16Z</time>
      </trkpt>
      <trkpt lat="47.24338" lon="5.71106">
        <ele>302.471924</ele>
        <time>2013-04-04T14:03:34Z</time>
      </trkpt>
      <trkpt lat="47.24328" lon="5.71119">
        <ele>304.875244</ele>
        <time>2013-04-04T14:03:55Z</time>
      </trkpt>
      <trkpt lat="47.24331" lon="5.71133">
        <ele>305.355957</ele>
        <time>2013-04-04T14:04:03Z</time>
      </trkpt>
      <trkpt lat="47.24336" lon="5.7115">
        <ele>306.317261</ele>
        <time>2013-04-04T14:04:16Z</time>
      </trkpt>
      <trkpt lat="47.24328" lon="5.71169">
        <ele>308.239868</ele>
        <time>2013-04-04T14:04:32Z</time>
      </trkpt>
      <trkpt lat="47.24318" lon="5.71179">
        <ele>309.681885</ele>
        <time>2013-04-04T14:04:44Z</time>
      </trkpt>
      <trkpt lat="47.24302" lon="5.71191">
        <ele>312.085205</ele>
        <time>2013-04-04T14:05:01Z</time>
      </trkpt>
      <trkpt lat="47.24285" lon="5.71205">
        <ele>314.488403</ele>
        <time>2013-04-04T14:05:21Z</time>
      </trkpt>
      <trkpt lat="47.24268" lon="5.71212">
        <ele>316.891724</ele>
        <time>2013-04-04T14:05:40Z</time>
      </trkpt>
      <trkpt lat="47.24249" lon="5.71231">
        <ele>318.814331</ele>
        <time>2013-04-04T14:06:00Z</time>
      </trkpt>
      <trkpt lat="47.24239" lon="5.71247">
        <ele>320.737061</ele>
        <time>2013-04-04T14:06:19Z</time>
      </trkpt>
      <trkpt lat="47.2422" lon="5.71261">
        <ele>323.140381</ele>
        <time>2013-04-04T14:06:36Z</time>
      </trkpt>
      <trkpt lat="47.24201" lon="5.7127">
        <ele>325.543579</ele>
        <time>2013-04-04T14:06:57Z</time>
      </trkpt>
      <trkpt lat="47.24182" lon="5.71286">
        <ele>328.427612</ele>
        <time>2013-04-04T14:07:19Z</time>
      </trkpt>
      <trkpt lat="47.2417" lon="5.71295">
        <ele>329.869507</ele>
        <time>2013-04-04T14:07:29Z</time>
      </trkpt>
      <trkpt lat="47.24154" lon="5.71308">
        <ele>331.311523</ele>
        <time>2013-04-04T14:07:45Z</time>
      </trkpt>
      <trkpt lat="47.24145" lon="5.71315">
        <ele>332.75354</ele>
        <time>2013-04-04T14:07:56Z</time>
      </trkpt>
      <trkpt lat="47.24128" lon="5.7133">
        <ele>334.195435</ele>
        <time>2013-04-04T14:08:11Z</time>
      </trkpt>
      <trkpt lat="47.24106" lon="5.71351">
        <ele>336.598877</ele>
        <time>2013-04-04T14:08:31Z</time>
      </trkpt>
      <trkpt lat="47.24091" lon="5.71365">
        <ele>339.002075</ele>
        <time>2013-04-04T14:08:50Z</time>
      </trkpt>
      <trkpt lat="47.24081" lon="5.71375">
        <ele>339.963379</ele>
        <time>2013-04-04T14:09:06Z</time>
      </trkpt>
      <trkpt lat="47.2406" lon="5.71387">
        <ele>341.885986</ele>
        <time>2013-04-04T14:09:26Z</time>
      </trkpt>
      <trkpt lat="47.24039" lon="5.71407">
        <ele>343.808594</ele>
        <time>2013-04-04T14:09:43Z</time>
      </trkpt>
      <trkpt lat="47.2402" lon="5.71421">
        <ele>346.692627</ele>
        <time>2013-04-04T14:10:04Z</time>
      </trkpt>
      <trkpt lat="47.24001" lon="5.71436">
        <ele>348.615234</ele>
        <time>2013-04-04T14:10:27Z</time>
      </trkpt>
      <trkpt lat="47.23982" lon="5.71453">
        <ele>350.057251</ele>
        <time>2013-04-04T14:10:47Z</time>
      </trkpt>
      <trkpt lat="47.23962" lon="5.7147">
        <ele>351.499146</ele>
        <time>2013-04-04T14:11:05Z</time>
      </trkpt>
      <trkpt lat="47.23948" lon="5.71477">
        <ele>352.460571</ele>
        <time>2013-04-04T14:11:20Z</time>
      </trkpt>
      <trkpt lat="47.23932" lon="5.71489">
        <ele>351.979858</ele>
        <time>2013-04-04T14:11:36Z</time>
      </trkpt>
      <trkpt lat="47.23919" lon="5.71503">
        <ele>351.979858</ele>
        <time>2013-04-04T14:11:50Z</time>
      </trkpt>
      <trkpt lat="47.23897" lon="5.71524">
        <ele>351.499146</ele>
        <time>2013-04-04T14:12:08Z</time>
      </trkpt>
      <trkpt lat="47.23881" lon="5.71535">
        <ele>350.537842</ele>
        <time>2013-04-04T14:12:26Z</time>
      </trkpt>
      <trkpt lat="47.23868" lon="5.71545">
        <ele>349.576538</ele>
        <time>2013-04-04T14:12:37Z</time>
      </trkpt>
      <trkpt lat="47.23858" lon="5.71555">
        <ele>348.615234</ele>
        <time>2013-04-04T14:12:49Z</time>
      </trkpt>
      <trkpt lat="47.23853" lon="5.71559">
        <ele>348.134644</ele>
        <time>2013-04-04T14:12:53Z</time>
      </trkpt>
      <trkpt lat="47.23835" lon="5.71577">
        <ele>347.653931</ele>
        <time>2013-04-04T14:13:04Z</time>
      </trkpt>
      <trkpt lat="47.23829" lon="5.71579">
        <ele>347.173218</ele>
        <time>2013-04-04T14:13:08Z</time>
      </trkpt>
      <trkpt lat="47.23822" lon="5.71585">
        <ele>346.692627</ele>
        <time>2013-04-04T14:13:15Z</time>
      </trkpt>
      <trkpt lat="47.23821" lon="5.71585">
        <ele>346.212036</ele>
        <time>2013-04-04T14:13:17Z</time>
      </trkpt>
      <trkpt lat="47.23819" lon="5.71586">
        <ele>346.212036</ele>
        <time>2013-04-04T14:13:19Z</time>
      </trkpt>
      <trkpt lat="47.23806" lon="5.71592">
        <ele>344.77002</ele>
        <time>2013-04-04T14:13:36Z</time>
      </trkpt>
      <trkpt lat="47.23803" lon="5.71592">
        <ele>344.289429</ele>
        <time>2013-04-04T14:13:39Z</time>
      </trkpt>
      <trkpt lat="47.23791" lon="5.71575">
        <ele>345.25061</ele>
        <time>2013-04-04T14:13:55Z</time>
      </trkpt>
      <trkpt lat="47.23788" lon="5.71573">
        <ele>345.731323</ele>
        <time>2013-04-04T14:13:58Z</time>
      </trkpt>
      <trkpt lat="47.23783" lon="5.71568">
        <ele>346.212036</ele>
        <time>2013-04-04T14:14:04Z</time>
      </trkpt>
      <trkpt lat="47.23776" lon="5.71548">
        <ele>347.173218</ele>
        <time>2013-04-04T14:14:19Z</time>
      </trkpt>
      <trkpt lat="47.23763" lon="5.7152">
        <ele>349.576538</ele>
        <time>2013-04-04T14:14:41Z</time>
      </trkpt>
      <trkpt lat="47.23755" lon="5.715">
        <ele>350.537842</ele>
        <time>2013-04-04T14:14:55Z</time>
      </trkpt>
      <trkpt lat="47.23748" lon="5.7147">
        <ele>351.499146</ele>
        <time>2013-04-04T14:15:11Z</time>
      </trkpt>
      <trkpt lat="47.23739" lon="5.71452">
        <ele>351.979858</ele>
        <time>2013-04-04T14:15:26Z</time>
      </trkpt>
      <trkpt lat="47.23732" lon="5.71425">
        <ele>352.941162</ele>
        <time>2013-04-04T14:15:40Z</time>
      </trkpt>
      <trkpt lat="47.23725" lon="5.71409">
        <ele>353.421875</ele>
        <time>2013-04-04T14:15:52Z</time>
      </trkpt>
      <trkpt lat="47.23721" lon="5.71393">
        <ele>353.902588</ele>
        <time>2013-04-04T14:16:04Z</time>
      </trkpt>
      <trkpt lat="47.23709" lon="5.71367">
        <ele>354.383179</ele>
        <time>2013-04-04T14:16:20Z</time>
      </trkpt>
      <trkpt lat="47.23706" lon="5.71358">
        <ele>353.902588</ele>
        <time>2013-04-04T14:16:25Z</time>
      </trkpt>
      <trkpt lat="47.23705" lon="5.71355">
        <ele>353.902588</ele>
        <time>2013-04-04T14:16:28Z</time>
      </trkpt>
      <trkpt lat="47.23696" lon="5.71328">
        <ele>354.383179</ele>
        <time>2013-04-04T14:16:42Z</time>
      </trkpt>
      <trkpt lat="47.23691" lon="5.71304">
        <ele>354.383179</ele>
        <time>2013-04-04T14:16:56Z</time>
      </trkpt>
      <trkpt lat="47.23688" lon="5.71297">
        <ele>354.383179</ele>
        <time>2013-04-04T14:17:02Z</time>
      </trkpt>
      <trkpt lat="47.23684" lon="5.71291">
        <ele>354.383179</ele>
        <time>2013-04-04T14:17:07Z</time>
      </trkpt>
      <trkpt lat="47.23676" lon="5.71268">
        <ele>354.383179</ele>
        <time>2013-04-04T14:17:22Z</time>
      </trkpt>
      <trkpt lat="47.23664" lon="5.71241">
        <ele>353.902588</ele>
        <time>2013-04-04T14:17:39Z</time>
      </trkpt>
      <trkpt lat="47.23652" lon="5.71213">
        <ele>352.941162</ele>
        <time>2013-04-04T14:17:58Z</time>
      </trkpt>
      <trkpt lat="47.23634" lon="5.71214">
        <ele>351.979858</ele>
        <time>2013-04-04T14:18:20Z</time>
      </trkpt>
      <trkpt lat="47.23615" lon="5.71228">
        <ele>350.057251</ele>
        <time>2013-04-04T14:18:40Z</time>
      </trkpt>
      <trkpt lat="47.23595" lon="5.71241">
        <ele>348.615234</ele>
        <time>2013-04-04T14:18:59Z</time>
      </trkpt>
      <trkpt lat="47.23578" lon="5.71262">
        <ele>347.173218</ele>
        <time>2013-04-04T14:19:12Z</time>
      </trkpt>
      <trkpt lat="47.23561" lon="5.71266">
        <ele>345.731323</ele>
        <time>2013-04-04T14:19:30Z</time>
      </trkpt>
      <trkpt lat="47.23546" lon="5.71246">
        <ele>344.77002</ele>
        <time>2013-04-04T14:19:50Z</time>
      </trkpt>
      <trkpt lat="47.23542" lon="5.71234">
        <ele>344.289429</ele>
        <time>2013-04-04T14:19:55Z</time>
      </trkpt>
      <trkpt lat="47.23535" lon="5.71216">
        <ele>343.808594</ele>
        <time>2013-04-04T14:20:10Z</time>
      </trkpt>
      <trkpt lat="47.23528" lon="5.71202">
        <ele>342.84729</ele>
        <time>2013-04-04T14:20:20Z</time>
      </trkpt>
      <trkpt lat="47.2352" lon="5.71186">
        <ele>341.885986</ele>
        <time>2013-04-04T14:20:34Z</time>
      </trkpt>
      <trkpt lat="47.23507" lon="5.71163">
        <ele>340.924683</ele>
        <time>2013-04-04T14:20:49Z</time>
      </trkpt>
      <trkpt lat="47.23502" lon="5.71156">
        <ele>340.924683</ele>
        <time>2013-04-04T14:20:51Z</time>
      </trkpt>
      <trkpt lat="47.23492" lon="5.71133">
        <ele>339.963379</ele>
        <time>2013-04-04T14:21:08Z</time>
      </trkpt>
      <trkpt lat="47.23482" lon="5.71108">
        <ele>338.521484</ele>
        <time>2013-04-04T14:21:22Z</time>
      </trkpt>
      <trkpt lat="47.23476" lon="5.71083">
        <ele>337.079468</ele>
        <time>2013-04-04T14:21:43Z</time>
      </trkpt>
      <trkpt lat="47.23468" lon="5.71063">
        <ele>335.156738</ele>
        <time>2013-04-04T14:22:06Z</time>
      </trkpt>
      <trkpt lat="47.23462" lon="5.71032">
        <ele>333.234131</ele>
        <time>2013-04-04T14:22:28Z</time>
      </trkpt>
      <trkpt lat="47.23453" lon="5.71013">
        <ele>332.272827</ele>
        <time>2013-04-04T14:22:45Z</time>
      </trkpt>
      <trkpt lat="47.2345" lon="5.71008">
        <ele>331.792114</ele>
        <time>2013-04-04T14:22:49Z</time>
      </trkpt>
      <trkpt lat="47.23444" lon="5.71001">
        <ele>331.311523</ele>
        <time>2013-04-04T14:22:55Z</time>
      </trkpt>
      <trkpt lat="47.23427" lon="5.70993">
        <ele>330.35022</ele>
        <time>2013-04-04T14:23:09Z</time>
      </trkpt>
      <trkpt lat="47.23397" lon="5.70984">
        <ele>328.908325</ele>
        <time>2013-04-04T14:23:32Z</time>
      </trkpt>
      <trkpt lat="47.23371" lon="5.70978">
        <ele>327.466187</ele>
        <time>2013-04-04T14:23:52Z</time>
      </trkpt>
      <trkpt lat="47.2336" lon="5.70963">
        <ele>327.466187</ele>
        <time>2013-04-04T14:24:03Z</time>
      </trkpt>
      <trkpt lat="47.23333" lon="5.70951">
        <ele>325.543579</ele>
        <time>2013-04-04T14:24:22Z</time>
      </trkpt>
      <trkpt lat="47.23326" lon="5.70949">
        <ele>324.582275</ele>
        <time>2013-04-04T14:24:27Z</time>
      </trkpt>
      <trkpt lat="47.23319" lon="5.70948">
        <ele>324.582275</ele>
        <time>2013-04-04T14:24:31Z</time>
      </trkpt>
      <trkpt lat="47.23296" lon="5.70936">
        <ele>322.659668</ele>
        <time>2013-04-04T14:24:50Z</time>
      </trkpt>
      <trkpt lat="47.23268" lon="5.70921">
        <ele>320.256348</ele>
        <time>2013-04-04T14:25:07Z</time>
      </trkpt>
      <trkpt lat="47.23252" lon="5.70915">
        <ele>318.814331</ele>
        <time>2013-04-04T14:25:20Z</time>
      </trkpt>
      <trkpt lat="47.23246" lon="5.70912">
        <ele>318.333618</ele>
        <time>2013-04-04T14:25:25Z</time>
      </trkpt>
      <trkpt lat="47.23236" lon="5.70909">
        <ele>317.372437</ele>
        <time>2013-04-04T14:25:33Z</time>
      </trkpt>
      <trkpt lat="47.23231" lon="5.70907">
        <ele>316.891724</ele>
        <time>2013-04-04T14:25:37Z</time>
      </trkpt>
      <trkpt lat="47.232" lon="5.70894">
        <ele>314.488403</ele>
        <time>2013-04-04T14:26:03Z</time>
      </trkpt>
      <trkpt lat="47.23175" lon="5.70887">
        <ele>312.085205</ele>
        <time>2013-04-04T14:26:24Z</time>
      </trkpt>
      <trkpt lat="47.23145" lon="5.7088">
        <ele>309.201172</ele>
        <time>2013-04-04T14:26:48Z</time>
      </trkpt>
      <trkpt lat="47.23134" lon="5.70872">
        <ele>308.239868</ele>
        <time>2013-04-04T14:27:08Z</time>
      </trkpt>
      <trkpt lat="47.2312" lon="5.70866">
        <ele>307.278564</ele>
        <time>2013-04-04T14:27:20Z</time>
      </trkpt>
      <trkpt lat="47.2312" lon="5.70844">
        <ele>308.239868</ele>
        <time>2013-04-04T14:27:39Z</time>
      </trkpt>
      <trkpt lat="47.23126" lon="5.7083">
        <ele>311.604492</ele>
        <time>2013-04-04T14:27:52Z</time>
      </trkpt>
      <trkpt lat="47.23129" lon="5.70826">
        <ele>312.085205</ele>
        <time>2013-04-04T14:27:56Z</time>
      </trkpt>
      <trkpt lat="47.23141" lon="5.7081">
        <ele>314.488403</ele>
        <time>2013-04-04T14:28:08Z</time>
      </trkpt>
      <trkpt lat="47.23141" lon="5.70798">
        <ele>314.969116</ele>
        <time>2013-04-04T14:28:13Z</time>
      </trkpt>
      <trkpt lat="47.23142" lon="5.70788">
        <ele>314.969116</ele>
        <time>2013-04-04T14:28:19Z</time>
      </trkpt>
      <trkpt lat="47.23142" lon="5.70786">
        <ele>314.969116</ele>
        <time>2013-04-04T14:28:21Z</time>
      </trkpt>
      <trkpt lat="47.23142" lon="5.70782">
        <ele>314.969116</ele>
        <time>2013-04-04T14:28:23Z</time>
      </trkpt>
      <trkpt lat="47.23142" lon="5.70773">
        <ele>314.969116</ele>
        <time>2013-04-04T14:28:28Z</time>
      </trkpt>
      <trkpt lat="47.23137" lon="5.7075">
        <ele>315.449829</ele>
        <time>2013-04-04T14:28:42Z</time>
      </trkpt>
      <trkpt lat="47.23123" lon="5.70716">
        <ele>315.449829</ele>
        <time>2013-04-04T14:29:02Z</time>
      </trkpt>
      <trkpt lat="47.23117" lon="5.70694">
        <ele>315.449829</ele>
        <time>2013-04-04T14:29:17Z</time>
      </trkpt>
      <trkpt lat="47.23109" lon="5.70671">
        <ele>315.449829</ele>
        <time>2013-04-04T14:29:31Z</time>
      </trkpt>
      <trkpt lat="47.23103" lon="5.70643">
        <ele>316.411011</ele>
        <time>2013-04-04T14:29:48Z</time>
      </trkpt>
      <trkpt lat="47.23102" lon="5.70637">
        <ele>315.93042</ele>
        <time>2013-04-04T14:29:51Z</time>
      </trkpt>
      <trkpt lat="47.23101" lon="5.70632">
        <ele>316.411011</ele>
        <time>2013-04-04T14:29:54Z</time>
      </trkpt>
      <trkpt lat="47.23098" lon="5.70623">
        <ele>316.891724</ele>
        <time>2013-04-04T14:29:59Z</time>
      </trkpt>
      <trkpt lat="47.23091" lon="5.70597">
        <ele>316.891724</ele>
        <time>2013-04-04T14:30:15Z</time>
      </trkpt>
      <trkpt lat="47.23089" lon="5.70592">
        <ele>317.372437</ele>
        <time>2013-04-04T14:30:19Z</time>
      </trkpt>
      <trkpt lat="47.23087" lon="5.70567">
        <ele>316.891724</ele>
        <time>2013-04-04T14:30:32Z</time>
      </trkpt>
      <trkpt lat="47.23085" lon="5.70565">
        <ele>316.891724</ele>
        <time>2013-04-04T14:30:33Z</time>
      </trkpt>
      <trkpt lat="47.23081" lon="5.70555">
        <ele>317.372437</ele>
        <time>2013-04-04T14:30:40Z</time>
      </trkpt>
      <trkpt lat="47.23075" lon="5.70533">
        <ele>317.372437</ele>
        <time>2013-04-04T14:30:53Z</time>
      </trkpt>
      <trkpt lat="47.23068" lon="5.70512">
        <ele>318.333618</ele>
        <time>2013-04-04T14:31:07Z</time>
      </trkpt>
      <trkpt lat="47.23065" lon="5.70504">
        <ele>318.814331</ele>
        <time>2013-04-04T14:31:13Z</time>
      </trkpt>
      <trkpt lat="47.23063" lon="5.70501">
        <ele>318.333618</ele>
        <time>2013-04-04T14:31:15Z</time>
      </trkpt>
      <trkpt lat="47.23053" lon="5.70478">
        <ele>318.814331</ele>
        <time>2013-04-04T14:31:29Z</time>
      </trkpt>
      <trkpt lat="47.23045" lon="5.70449">
        <ele>319.775635</ele>
        <time>2013-04-04T14:31:46Z</time>
      </trkpt>
      <trkpt lat="47.2304" lon="5.70439">
        <ele>320.256348</ele>
        <time>2013-04-04T14:31:52Z</time>
      </trkpt>
      <trkpt lat="47.23034" lon="5.70416">
        <ele>321.217773</ele>
        <time>2013-04-04T14:32:06Z</time>
      </trkpt>
      <trkpt lat="47.2303" lon="5.70406">
        <ele>321.217773</ele>
        <time>2013-04-04T14:32:13Z</time>
      </trkpt>
      <trkpt lat="47.23018" lon="5.7039">
        <ele>321.698364</ele>
        <time>2013-04-04T14:32:26Z</time>
      </trkpt>
      <trkpt lat="47.23015" lon="5.70387">
        <ele>321.698364</ele>
        <time>2013-04-04T14:32:29Z</time>
      </trkpt>
      <trkpt lat="47.2301" lon="5.70368">
        <ele>321.698364</ele>
        <time>2013-04-04T14:32:40Z</time>
      </trkpt>
      <trkpt lat="47.23005" lon="5.70357">
        <ele>321.698364</ele>
        <time>2013-04-04T14:32:47Z</time>
      </trkpt>
      <trkpt lat="47.22993" lon="5.70335">
        <ele>321.698364</ele>
        <time>2013-04-04T14:33:02Z</time>
      </trkpt>
      <trkpt lat="47.22983" lon="5.70322">
        <ele>321.217773</ele>
        <time>2013-04-04T14:33:13Z</time>
      </trkpt>
      <trkpt lat="47.22972" lon="5.70303">
        <ele>320.737061</ele>
        <time>2013-04-04T14:33:27Z</time>
      </trkpt>
      <trkpt lat="47.2296" lon="5.70282">
        <ele>320.256348</ele>
        <time>2013-04-04T14:33:42Z</time>
      </trkpt>
      <trkpt lat="47.22957" lon="5.70279">
        <ele>320.256348</ele>
        <time>2013-04-04T14:34:02Z</time>
      </trkpt>
      <trkpt lat="47.22957" lon="5.70274">
        <ele>319.775635</ele>
        <time>2013-04-04T14:34:24Z</time>
      </trkpt>
      <trkpt lat="47.22958" lon="5.70268">
        <ele>319.775635</ele>
        <time>2013-04-04T14:34:38Z</time>
      </trkpt>
      <trkpt lat="47.22958" lon="5.7027">
        <ele>319.295044</ele>
        <time>2013-04-04T14:35:32Z</time>
      </trkpt>
      <trkpt lat="47.22959" lon="5.70271">
        <ele>318.333618</ele>
        <time>2013-04-04T14:36:16Z</time>
      </trkpt>
      <trkpt lat="47.2296" lon="5.70267">
        <ele>317.853027</ele>
        <time>2013-04-04T14:37:20Z</time>
      </trkpt>
      <trkpt lat="47.22963" lon="5.70269">
        <ele>316.891724</ele>
        <time>2013-04-04T14:37:46Z</time>
      </trkpt>
      <trkpt lat="47.2296" lon="5.70269">
        <ele>316.891724</ele>
        <time>2013-04-04T14:38:08Z</time>
      </trkpt>
      <trkpt lat="47.22962" lon="5.70267">
        <ele>315.93042</ele>
        <time>2013-04-04T14:39:54Z</time>
      </trkpt>
      <trkpt lat="47.22977" lon="5.7027">
        <ele>318.333618</ele>
        <time>2013-04-04T14:40:12Z</time>
      </trkpt>
      <trkpt lat="47.22987" lon="5.70268">
        <ele>320.737061</ele>
        <time>2013-04-04T14:40:26Z</time>
      </trkpt>
      <trkpt lat="47.22996" lon="5.70263">
        <ele>322.659668</ele>
        <time>2013-04-04T14:40:38Z</time>
      </trkpt>
      <trkpt lat="47.23008" lon="5.70259">
        <ele>326.02417</ele>
        <time>2013-04-04T14:40:54Z</time>
      </trkpt>
      <trkpt lat="47.23019" lon="5.70249">
        <ele>328.908325</ele>
        <time>2013-04-04T14:41:10Z</time>
      </trkpt>
      <trkpt lat="47.23032" lon="5.70244">
        <ele>330.830933</ele>
        <time>2013-04-04T14:41:23Z</time>
      </trkpt>
      <trkpt lat="47.23043" lon="5.7024">
        <ele>333.234131</ele>
        <time>2013-04-04T14:41:38Z</time>
      </trkpt>
      <trkpt lat="47.23047" lon="5.70238">
        <ele>333.714722</ele>
        <time>2013-04-04T14:41:43Z</time>
      </trkpt>
      <trkpt lat="47.23054" lon="5.70241">
        <ele>334.676147</ele>
        <time>2013-04-04T14:41:50Z</time>
      </trkpt>
      <trkpt lat="47.23062" lon="5.70234">
        <ele>336.598877</ele>
        <time>2013-04-04T14:42:01Z</time>
      </trkpt>
      <trkpt lat="47.23063" lon="5.70232">
        <ele>336.598877</ele>
        <time>2013-04-04T14:42:02Z</time>
      </trkpt>
      <trkpt lat="47.23063" lon="5.70226">
        <ele>337.079468</ele>
        <time>2013-04-04T14:42:07Z</time>
      </trkpt>
      <trkpt lat="47.23065" lon="5.70223">
        <ele>337.560059</ele>
        <time>2013-04-04T14:42:09Z</time>
      </trkpt>
      <trkpt lat="47.23069" lon="5.70218">
        <ele>338.040771</ele>
        <time>2013-04-04T14:42:13Z</time>
      </trkpt>
      <trkpt lat="47.2307" lon="5.70203">
        <ele>339.002075</ele>
        <time>2013-04-04T14:42:21Z</time>
      </trkpt>
      <trkpt lat="47.23077" lon="5.70185">
        <ele>340.924683</ele>
        <time>2013-04-04T14:42:36Z</time>
      </trkpt>
      <trkpt lat="47.23076" lon="5.7018">
        <ele>341.405273</ele>
        <time>2013-04-04T14:42:39Z</time>
      </trkpt>
      <trkpt lat="47.23083" lon="5.70154">
        <ele>343.327881</ele>
        <time>2013-04-04T14:42:55Z</time>
      </trkpt>
      <trkpt lat="47.23084" lon="5.70149">
        <ele>343.808594</ele>
        <time>2013-04-04T14:42:58Z</time>
      </trkpt>
      <trkpt lat="47.23083" lon="5.70128">
        <ele>345.731323</ele>
        <time>2013-04-04T14:43:12Z</time>
      </trkpt>
      <trkpt lat="47.23086" lon="5.70113">
        <ele>347.173218</ele>
        <time>2013-04-04T14:43:25Z</time>
      </trkpt>
      <trkpt lat="47.23092" lon="5.70098">
        <ele>348.615234</ele>
        <time>2013-04-04T14:43:37Z</time>
      </trkpt>
      <trkpt lat="47.23102" lon="5.70089">
        <ele>350.537842</ele>
        <time>2013-04-04T14:43:50Z</time>
      </trkpt>
      <trkpt lat="47.23109" lon="5.70079">
        <ele>351.499146</ele>
        <time>2013-04-04T14:44:00Z</time>
      </trkpt>
      <trkpt lat="47.23111" lon="5.70078">
        <ele>351.979858</ele>
        <time>2013-04-04T14:44:01Z</time>
      </trkpt>
      <trkpt lat="47.23123" lon="5.70069">
        <ele>353.421875</ele>
        <time>2013-04-04T14:44:13Z</time>
      </trkpt>
      <trkpt lat="47.23126" lon="5.70067">
        <ele>353.902588</ele>
        <time>2013-04-04T14:44:17Z</time>
      </trkpt>
      <trkpt lat="47.23129" lon="5.70065">
        <ele>354.383179</ele>
        <time>2013-04-04T14:44:20Z</time>
      </trkpt>
      <trkpt lat="47.2314" lon="5.70059">
        <ele>356.786377</ele>
        <time>2013-04-04T14:44:34Z</time>
      </trkpt>
      <trkpt lat="47.23153" lon="5.70048">
        <ele>358.708984</ele>
        <time>2013-04-04T14:44:50Z</time>
      </trkpt>
      <trkpt lat="47.23154" lon="5.70047">
        <ele>359.189697</ele>
        <time>2013-04-04T14:44:51Z</time>
      </trkpt>
      <trkpt lat="47.23159" lon="5.70045">
        <ele>359.67041</ele>
        <time>2013-04-04T14:44:55Z</time>
      </trkpt>
      <trkpt lat="47.23174" lon="5.70035">
        <ele>361.112427</ele>
        <time>2013-04-04T14:45:10Z</time>
      </trkpt>
      <trkpt lat="47.23188" lon="5.70028">
        <ele>362.554321</ele>
        <time>2013-04-04T14:45:22Z</time>
      </trkpt>
      <trkpt lat="47.23203" lon="5.7002">
        <ele>363.515747</ele>
        <time>2013-04-04T14:45:36Z</time>
      </trkpt>
      <trkpt lat="47.23217" lon="5.70015">
        <ele>364.476929</ele>
        <time>2013-04-04T14:45:50Z</time>
      </trkpt>
      <trkpt lat="47.23236" lon="5.70005">
        <ele>364.957642</ele>
        <time>2013-04-04T14:46:08Z</time>
      </trkpt>
      <trkpt lat="47.23246" lon="5.69997">
        <ele>364.957642</ele>
        <time>2013-04-04T14:46:17Z</time>
      </trkpt>
      <trkpt lat="47.23243" lon="5.69983">
        <ele>364.957642</ele>
        <time>2013-04-04T14:46:29Z</time>
      </trkpt>
      <trkpt lat="47.23241" lon="5.69967">
        <ele>364.476929</ele>
        <time>2013-04-04T14:46:40Z</time>
      </trkpt>
      <trkpt lat="47.2324" lon="5.69961">
        <ele>364.476929</ele>
        <time>2013-04-04T14:46:44Z</time>
      </trkpt>
      <trkpt lat="47.23239" lon="5.69948">
        <ele>364.476929</ele>
        <time>2013-04-04T14:46:51Z</time>
      </trkpt>
      <trkpt lat="47.23238" lon="5.69942">
        <ele>364.476929</ele>
        <time>2013-04-04T14:46:55Z</time>
      </trkpt>
      <trkpt lat="47.23231" lon="5.6993">
        <ele>363.996338</ele>
        <time>2013-04-04T14:47:03Z</time>
      </trkpt>
      <trkpt lat="47.23231" lon="5.69927">
        <ele>364.476929</ele>
        <time>2013-04-04T14:47:05Z</time>
      </trkpt>
      <trkpt lat="47.23224" lon="5.69895">
        <ele>363.996338</ele>
        <time>2013-04-04T14:47:23Z</time>
      </trkpt>
      <trkpt lat="47.23223" lon="5.69887">
        <ele>363.996338</ele>
        <time>2013-04-04T14:47:28Z</time>
      </trkpt>
      <trkpt lat="47.2322" lon="5.69873">
        <ele>363.515747</ele>
        <time>2013-04-04T14:47:35Z</time>
      </trkpt>
      <trkpt lat="47.23213" lon="5.69848">
        <ele>363.035034</ele>
        <time>2013-04-04T14:47:49Z</time>
      </trkpt>
      <trkpt lat="47.23207" lon="5.69818">
        <ele>363.035034</ele>
        <time>2013-04-04T14:48:05Z</time>
      </trkpt>
      <trkpt lat="47.23199" lon="5.69794">
        <ele>362.554321</ele>
        <time>2013-04-04T14:48:20Z</time>
      </trkpt>
      <trkpt lat="47.23191" lon="5.69771">
        <ele>362.554321</ele>
        <time>2013-04-04T14:48:35Z</time>
      </trkpt>
      <trkpt lat="47.23183" lon="5.69744">
        <ele>362.554321</ele>
        <time>2013-04-04T14:48:52Z</time>
      </trkpt>
      <trkpt lat="47.23175" lon="5.69719">
        <ele>362.554321</ele>
        <time>2013-04-04T14:49:08Z</time>
      </trkpt>
      <trkpt lat="47.23173" lon="5.69707">
        <ele>363.035034</ele>
        <time>2013-04-04T14:49:14Z</time>
      </trkpt>
      <trkpt lat="47.23172" lon="5.69696">
        <ele>363.035034</ele>
        <time>2013-04-04T14:49:19Z</time>
      </trkpt>
      <trkpt lat="47.23173" lon="5.69684">
        <ele>363.035034</ele>
        <time>2013-04-04T14:49:26Z</time>
      </trkpt>
      <trkpt lat="47.23164" lon="5.69659">
        <ele>363.035034</ele>
        <time>2013-04-04T14:49:41Z</time>
      </trkpt>
      <trkpt lat="47.23158" lon="5.69629">
        <ele>362.07373</ele>
        <time>2013-04-04T14:49:58Z</time>
      </trkpt>
      <trkpt lat="47.23156" lon="5.69608">
        <ele>362.07373</ele>
        <time>2013-04-04T14:50:09Z</time>
      </trkpt>
      <trkpt lat="47.23151" lon="5.69576">
        <ele>362.07373</ele>
        <time>2013-04-04T14:50:27Z</time>
      </trkpt>
      <trkpt lat="47.23149" lon="5.69566">
        <ele>363.035034</ele>
        <time>2013-04-04T14:50:42Z</time>
      </trkpt>
      <trkpt lat="47.23153" lon="5.69549">
        <ele>363.515747</ele>
        <time>2013-04-04T14:51:28Z</time>
      </trkpt>
      <trkpt lat="47.23155" lon="5.69544">
        <ele>363.515747</ele>
        <time>2013-04-04T14:51:31Z</time>
      </trkpt>
      <trkpt lat="47.23159" lon="5.69537">
        <ele>363.996338</ele>
        <time>2013-04-04T14:51:46Z</time>
      </trkpt>
      <trkpt lat="47.23154" lon="5.6952">
        <ele>363.996338</ele>
        <time>2013-04-04T14:52:08Z</time>
      </trkpt>
      <trkpt lat="47.23146" lon="5.69508">
        <ele>364.476929</ele>
        <time>2013-04-04T14:52:23Z</time>
      </trkpt>
      <trkpt lat="47.23145" lon="5.69505">
        <ele>364.957642</ele>
        <time>2013-04-04T14:52:26Z</time>
      </trkpt>
      <trkpt lat="47.23138" lon="5.69493">
        <ele>364.957642</ele>
        <time>2013-04-04T14:52:36Z</time>
      </trkpt>
      <trkpt lat="47.23136" lon="5.6949">
        <ele>364.957642</ele>
        <time>2013-04-04T14:52:39Z</time>
      </trkpt>
      <trkpt lat="47.23132" lon="5.69487">
        <ele>364.957642</ele>
        <time>2013-04-04T14:52:43Z</time>
      </trkpt>
      <trkpt lat="47.23129" lon="5.69484">
        <ele>364.957642</ele>
        <time>2013-04-04T14:52:46Z</time>
      </trkpt>
      <trkpt lat="47.23123" lon="5.69472">
        <ele>364.476929</ele>
        <time>2013-04-04T14:52:58Z</time>
      </trkpt>
      <trkpt lat="47.2311" lon="5.69459">
        <ele>364.476929</ele>
        <time>2013-04-04T14:53:17Z</time>
      </trkpt>
      <trkpt lat="47.23109" lon="5.69455">
        <ele>364.476929</ele>
        <time>2013-04-04T14:53:19Z</time>
      </trkpt>
      <trkpt lat="47.23104" lon="5.69447">
        <ele>364.476929</ele>
        <time>2013-04-04T14:53:25Z</time>
      </trkpt>
      <trkpt lat="47.23102" lon="5.69441">
        <ele>364.476929</ele>
        <time>2013-04-04T14:53:28Z</time>
      </trkpt>
      <trkpt lat="47.23088" lon="5.69426">
        <ele>363.515747</ele>
        <time>2013-04-04T14:53:47Z</time>
      </trkpt>
      <trkpt lat="47.23082" lon="5.69415">
        <ele>363.515747</ele>
        <time>2013-04-04T14:53:54Z</time>
      </trkpt>
      <trkpt lat="47.2307" lon="5.69403">
        <ele>363.035034</ele>
        <time>2013-04-04T14:54:08Z</time>
      </trkpt>
      <trkpt lat="47.23057" lon="5.69382">
        <ele>362.07373</ele>
        <time>2013-04-04T14:54:25Z</time>
      </trkpt>
      <trkpt lat="47.23047" lon="5.69358">
        <ele>361.59314</ele>
        <time>2013-04-04T14:54:42Z</time>
      </trkpt>
      <trkpt lat="47.23032" lon="5.69325">
        <ele>361.112427</ele>
        <time>2013-04-04T14:55:05Z</time>
      </trkpt>
      <trkpt lat="47.23028" lon="5.69318">
        <ele>361.112427</ele>
        <time>2013-04-04T14:55:11Z</time>
      </trkpt>
      <trkpt lat="47.23021" lon="5.69296">
        <ele>360.631714</ele>
        <time>2013-04-04T14:55:26Z</time>
      </trkpt>
      <trkpt lat="47.23015" lon="5.69281">
        <ele>360.151123</ele>
        <time>2013-04-04T14:55:46Z</time>
      </trkpt>
      <trkpt lat="47.23013" lon="5.69261">
        <ele>360.151123</ele>
        <time>2013-04-04T14:55:57Z</time>
      </trkpt>
      <trkpt lat="47.23014" lon="5.69257">
        <ele>360.151123</ele>
        <time>2013-04-04T14:56:01Z</time>
      </trkpt>
      <trkpt lat="47.23014" lon="5.69244">
        <ele>361.112427</ele>
        <time>2013-04-04T14:56:08Z</time>
      </trkpt>
      <trkpt lat="47.23015" lon="5.69203">
        <ele>362.07373</ele>
        <time>2013-04-04T14:56:30Z</time>
      </trkpt>
      <trkpt lat="47.23011" lon="5.69173">
        <ele>362.07373</ele>
        <time>2013-04-04T14:56:49Z</time>
      </trkpt>
      <trkpt lat="47.23011" lon="5.69151">
        <ele>362.554321</ele>
        <time>2013-04-04T14:57:02Z</time>
      </trkpt>
      <trkpt lat="47.23009" lon="5.69128">
        <ele>362.554321</ele>
        <time>2013-04-04T14:57:18Z</time>
      </trkpt>
      <trkpt lat="47.23008" lon="5.69098">
        <ele>362.07373</ele>
        <time>2013-04-04T14:57:36Z</time>
      </trkpt>
      <trkpt lat="47.2301" lon="5.6908">
        <ele>360.631714</ele>
        <time>2013-04-04T14:57:49Z</time>
      </trkpt>
      <trkpt lat="47.23011" lon="5.69061">
        <ele>362.07373</ele>
        <time>2013-04-04T14:58:16Z</time>
      </trkpt>
      <trkpt lat="47.23016" lon="5.69061">
        <ele>363.035034</ele>
        <time>2013-04-04T14:58:21Z</time>
      </trkpt>
      <trkpt lat="47.23023" lon="5.69066">
        <ele>364.476929</ele>
        <time>2013-04-04T14:58:36Z</time>
      </trkpt>
      <trkpt lat="47.23036" lon="5.69063">
        <ele>365.438354</ele>
        <time>2013-04-04T14:58:45Z</time>
      </trkpt>
      <trkpt lat="47.2305" lon="5.69064">
        <ele>365.438354</ele>
        <time>2013-04-04T14:58:52Z</time>
      </trkpt>
      <trkpt lat="47.23054" lon="5.69059">
        <ele>365.918945</ele>
        <time>2013-04-04T14:58:55Z</time>
      </trkpt>
      <trkpt lat="47.23062" lon="5.69062">
        <ele>365.918945</ele>
        <time>2013-04-04T14:59:06Z</time>
      </trkpt>
      <trkpt lat="47.23069" lon="5.69056">
        <ele>366.399536</ele>
        <time>2013-04-04T14:59:24Z</time>
      </trkpt>
      <trkpt lat="47.23084" lon="5.69059">
        <ele>366.880249</ele>
        <time>2013-04-04T14:59:36Z</time>
      </trkpt>
      <trkpt lat="47.23098" lon="5.69058">
        <ele>366.880249</ele>
        <time>2013-04-04T14:59:54Z</time>
      </trkpt>
      <trkpt lat="47.23108" lon="5.6906">
        <ele>366.880249</ele>
        <time>2013-04-04T15:00:05Z</time>
      </trkpt>
      <trkpt lat="47.2312" lon="5.69055">
        <ele>366.880249</ele>
        <time>2013-04-04T15:00:18Z</time>
      </trkpt>
      <trkpt lat="47.23133" lon="5.69052">
        <ele>366.880249</ele>
        <time>2013-04-04T15:00:32Z</time>
      </trkpt>
      <trkpt lat="47.23147" lon="5.69051">
        <ele>366.880249</ele>
        <time>2013-04-04T15:00:46Z</time>
      </trkpt>
      <trkpt lat="47.23161" lon="5.69047">
        <ele>366.880249</ele>
        <time>2013-04-04T15:01:01Z</time>
      </trkpt>
      <trkpt lat="47.23166" lon="5.69038">
        <ele>366.399536</ele>
        <time>2013-04-04T15:01:49Z</time>
      </trkpt>
      <trkpt lat="47.23169" lon="5.69035">
        <ele>366.399536</ele>
        <time>2013-04-04T15:01:52Z</time>
      </trkpt>
      <trkpt lat="47.23168" lon="5.6903">
        <ele>366.399536</ele>
        <time>2013-04-04T15:01:56Z</time>
      </trkpt>
      <trkpt lat="47.23167" lon="5.69023">
        <ele>366.399536</ele>
        <time>2013-04-04T15:02:00Z</time>
      </trkpt>
      <trkpt lat="47.23167" lon="5.69019">
        <ele>366.399536</ele>
        <time>2013-04-04T15:02:03Z</time>
      </trkpt>
      <trkpt lat="47.23172" lon="5.69008">
        <ele>365.918945</ele>
        <time>2013-04-04T15:02:13Z</time>
      </trkpt>
      <trkpt lat="47.23174" lon="5.69003">
        <ele>366.399536</ele>
        <time>2013-04-04T15:02:16Z</time>
      </trkpt>
      <trkpt lat="47.23173" lon="5.68996">
        <ele>365.918945</ele>
        <time>2013-04-04T15:02:20Z</time>
      </trkpt>
      <trkpt lat="47.23172" lon="5.68985">
        <ele>365.438354</ele>
        <time>2013-04-04T15:02:27Z</time>
      </trkpt>
      <trkpt lat="47.23174" lon="5.68976">
        <ele>365.918945</ele>
        <time>2013-04-04T15:02:34Z</time>
      </trkpt>
      <trkpt lat="47.23174" lon="5.6897">
        <ele>365.438354</ele>
        <time>2013-04-04T15:02:38Z</time>
      </trkpt>
      <trkpt lat="47.23171" lon="5.68948">
        <ele>364.957642</ele>
        <time>2013-04-04T15:02:49Z</time>
      </trkpt>
      <trkpt lat="47.23173" lon="5.68944">
        <ele>364.957642</ele>
        <time>2013-04-04T15:02:51Z</time>
      </trkpt>
      <trkpt lat="47.23176" lon="5.68938">
        <ele>364.957642</ele>
        <time>2013-04-04T15:02:54Z</time>
      </trkpt>
      <trkpt lat="47.23174" lon="5.68929">
        <ele>364.476929</ele>
        <time>2013-04-04T15:02:59Z</time>
      </trkpt>
      <trkpt lat="47.23167" lon="5.68898">
        <ele>363.515747</ele>
        <time>2013-04-04T15:03:15Z</time>
      </trkpt>
      <trkpt lat="47.23167" lon="5.6889">
        <ele>363.515747</ele>
        <time>2013-04-04T15:03:19Z</time>
      </trkpt>
      <trkpt lat="47.2317" lon="5.68886">
        <ele>363.035034</ele>
        <time>2013-04-04T15:03:22Z</time>
      </trkpt>
      <trkpt lat="47.2317" lon="5.68881">
        <ele>362.554321</ele>
        <time>2013-04-04T15:03:26Z</time>
      </trkpt>
      <trkpt lat="47.2317" lon="5.68878">
        <ele>362.554321</ele>
        <time>2013-04-04T15:03:28Z</time>
      </trkpt>
      <trkpt lat="47.23172" lon="5.68873">
        <ele>362.554321</ele>
        <time>2013-04-04T15:03:31Z</time>
      </trkpt>
      <trkpt lat="47.23168" lon="5.68863">
        <ele>362.07373</ele>
        <time>2013-04-04T15:03:36Z</time>
      </trkpt>
      <trkpt lat="47.23164" lon="5.68836">
        <ele>361.112427</ele>
        <time>2013-04-04T15:03:50Z</time>
      </trkpt>
      <trkpt lat="47.23163" lon="5.68812">
        <ele>360.631714</ele>
        <time>2013-04-04T15:04:03Z</time>
      </trkpt>
      <trkpt lat="47.23163" lon="5.68804">
        <ele>360.151123</ele>
        <time>2013-04-04T15:04:07Z</time>
      </trkpt>
      <trkpt lat="47.23162" lon="5.68794">
        <ele>360.151123</ele>
        <time>2013-04-04T15:04:13Z</time>
      </trkpt>
      <trkpt lat="47.23162" lon="5.6879">
        <ele>360.151123</ele>
        <time>2013-04-04T15:04:16Z</time>
      </trkpt>
      <trkpt lat="47.23165" lon="5.68769">
        <ele>359.189697</ele>
        <time>2013-04-04T15:04:27Z</time>
      </trkpt>
      <trkpt lat="47.23164" lon="5.68748">
        <ele>358.708984</ele>
        <time>2013-04-04T15:04:39Z</time>
      </trkpt>
      <trkpt lat="47.23164" lon="5.68745">
        <ele>358.708984</ele>
        <time>2013-04-04T15:04:41Z</time>
      </trkpt>
      <trkpt lat="47.23164" lon="5.68738">
        <ele>358.228394</ele>
        <time>2013-04-04T15:04:45Z</time>
      </trkpt>
      <trkpt lat="47.23164" lon="5.68726">
        <ele>357.26709</ele>
        <time>2013-04-04T15:04:53Z</time>
      </trkpt>
      <trkpt lat="47.23166" lon="5.68714">
        <ele>356.786377</ele>
        <time>2013-04-04T15:05:00Z</time>
      </trkpt>
      <trkpt lat="47.23164" lon="5.68702">
        <ele>355.825195</ele>
        <time>2013-04-04T15:05:07Z</time>
      </trkpt>
      <trkpt lat="47.23164" lon="5.68697">
        <ele>355.825195</ele>
        <time>2013-04-04T15:05:10Z</time>
      </trkpt>
      <trkpt lat="47.23164" lon="5.68692">
        <ele>354.86377</ele>
        <time>2013-04-04T15:05:13Z</time>
      </trkpt>
      <trkpt lat="47.2317" lon="5.68665">
        <ele>353.421875</ele>
        <time>2013-04-04T15:05:27Z</time>
      </trkpt>
      <trkpt lat="47.23165" lon="5.68648">
        <ele>351.499146</ele>
        <time>2013-04-04T15:05:38Z</time>
      </trkpt>
      <trkpt lat="47.23157" lon="5.68629">
        <ele>350.537842</ele>
        <time>2013-04-04T15:05:56Z</time>
      </trkpt>
      <trkpt lat="47.23157" lon="5.68629">
        <ele>350.057251</ele>
        <time>2013-04-04T15:07:22Z</time>
      </trkpt>
      <trkpt lat="47.23147" lon="5.6863">
        <ele>349.576538</ele>
        <time>2013-04-04T15:08:32Z</time>
      </trkpt>
      <trkpt lat="47.23134" lon="5.68642">
        <ele>349.095825</ele>
        <time>2013-04-04T15:08:50Z</time>
      </trkpt>
      <trkpt lat="47.23133" lon="5.68646">
        <ele>349.095825</ele>
        <time>2013-04-04T15:08:53Z</time>
      </trkpt>
      <trkpt lat="47.23126" lon="5.68655">
        <ele>349.095825</ele>
        <time>2013-04-04T15:09:01Z</time>
      </trkpt>
      <trkpt lat="47.23123" lon="5.68659">
        <ele>349.095825</ele>
        <time>2013-04-04T15:09:05Z</time>
      </trkpt>
      <trkpt lat="47.23111" lon="5.68672">
        <ele>349.576538</ele>
        <time>2013-04-04T15:09:20Z</time>
      </trkpt>
      <trkpt lat="47.2311" lon="5.68673">
        <ele>349.576538</ele>
        <time>2013-04-04T15:09:21Z</time>
      </trkpt>
      <trkpt lat="47.23097" lon="5.68684">
        <ele>350.057251</ele>
        <time>2013-04-04T15:09:34Z</time>
      </trkpt>
      <trkpt lat="47.23079" lon="5.68701">
        <ele>349.576538</ele>
        <time>2013-04-04T15:09:53Z</time>
      </trkpt>
      <trkpt lat="47.23062" lon="5.68709">
        <ele>349.576538</ele>
        <time>2013-04-04T15:10:13Z</time>
      </trkpt>
      <trkpt lat="47.23054" lon="5.68691">
        <ele>348.134644</ele>
        <time>2013-04-04T15:10:31Z</time>
      </trkpt>
      <trkpt lat="47.23052" lon="5.68689">
        <ele>347.653931</ele>
        <time>2013-04-04T15:10:33Z</time>
      </trkpt>
      <trkpt lat="47.23045" lon="5.68683">
        <ele>346.212036</ele>
        <time>2013-04-04T15:10:42Z</time>
      </trkpt>
      <trkpt lat="47.23042" lon="5.68677">
        <ele>345.731323</ele>
        <time>2013-04-04T15:10:46Z</time>
      </trkpt>
      <trkpt lat="47.23039" lon="5.68674">
        <ele>345.25061</ele>
        <time>2013-04-04T15:10:49Z</time>
      </trkpt>
      <trkpt lat="47.23029" lon="5.68651">
        <ele>342.84729</ele>
        <time>2013-04-04T15:11:06Z</time>
      </trkpt>
      <trkpt lat="47.23028" lon="5.6865">
        <ele>342.366699</ele>
        <time>2013-04-04T15:11:08Z</time>
      </trkpt>
      <trkpt lat="47.23026" lon="5.68646">
        <ele>341.885986</ele>
        <time>2013-04-04T15:11:11Z</time>
      </trkpt>
      <trkpt lat="47.23024" lon="5.6863">
        <ele>341.885986</ele>
        <time>2013-04-04T15:11:23Z</time>
      </trkpt>
      <trkpt lat="47.2302" lon="5.68625">
        <ele>340.444092</ele>
        <time>2013-04-04T15:11:31Z</time>
      </trkpt>
      <trkpt lat="47.23011" lon="5.68609">
        <ele>338.521484</ele>
        <time>2013-04-04T15:11:46Z</time>
      </trkpt>
      <trkpt lat="47.22997" lon="5.68589">
        <ele>336.598877</ele>
        <time>2013-04-04T15:12:09Z</time>
      </trkpt>
      <trkpt lat="47.22996" lon="5.68587">
        <ele>336.118164</ele>
        <time>2013-04-04T15:12:11Z</time>
      </trkpt>
      <trkpt lat="47.2299" lon="5.68572">
        <ele>334.676147</ele>
        <time>2013-04-04T15:12:25Z</time>
      </trkpt>
      <trkpt lat="47.22983" lon="5.68556">
        <ele>332.75354</ele>
        <time>2013-04-04T15:12:38Z</time>
      </trkpt>
      <trkpt lat="47.22974" lon="5.68543">
        <ele>330.830933</ele>
        <time>2013-04-04T15:12:57Z</time>
      </trkpt>
      <trkpt lat="47.22971" lon="5.68536">
        <ele>329.869507</ele>
        <time>2013-04-04T15:13:10Z</time>
      </trkpt>
      <trkpt lat="47.22971" lon="5.68539">
        <ele>330.35022</ele>
        <time>2013-04-04T15:13:30Z</time>
      </trkpt>
      <trkpt lat="47.22972" lon="5.68543">
        <ele>329.869507</ele>
        <time>2013-04-04T15:13:50Z</time>
      </trkpt>
      <trkpt lat="47.22968" lon="5.68525">
        <ele>328.427612</ele>
        <time>2013-04-04T15:14:14Z</time>
      </trkpt>
      <trkpt lat="47.22967" lon="5.68521">
        <ele>327.946777</ele>
        <time>2013-04-04T15:14:19Z</time>
      </trkpt>
      <trkpt lat="47.22956" lon="5.68493">
        <ele>325.543579</ele>
        <time>2013-04-04T15:14:34Z</time>
      </trkpt>
      <trkpt lat="47.22951" lon="5.68487">
        <ele>324.582275</ele>
        <time>2013-04-04T15:14:39Z</time>
      </trkpt>
      <trkpt lat="47.22941" lon="5.68481">
        <ele>323.140381</ele>
        <time>2013-04-04T15:14:45Z</time>
      </trkpt>
      <trkpt lat="47.22933" lon="5.68453">
        <ele>320.256348</ele>
        <time>2013-04-04T15:15:00Z</time>
      </trkpt>
      <trkpt lat="47.22931" lon="5.68444">
        <ele>318.814331</ele>
        <time>2013-04-04T15:15:09Z</time>
      </trkpt>
      <trkpt lat="47.2293" lon="5.6844">
        <ele>317.853027</ele>
        <time>2013-04-04T15:15:11Z</time>
      </trkpt>
      <trkpt lat="47.2293" lon="5.68437">
        <ele>317.853027</ele>
        <time>2013-04-04T15:15:13Z</time>
      </trkpt>
      <trkpt lat="47.22929" lon="5.68427">
        <ele>317.372437</ele>
        <time>2013-04-04T15:15:21Z</time>
      </trkpt>
      <trkpt lat="47.22931" lon="5.68398">
        <ele>314.969116</ele>
        <time>2013-04-04T15:15:37Z</time>
      </trkpt>
      <trkpt lat="47.22932" lon="5.68381">
        <ele>313.046509</ele>
        <time>2013-04-04T15:15:55Z</time>
      </trkpt>
      <trkpt lat="47.22935" lon="5.68364">
        <ele>311.123779</ele>
        <time>2013-04-04T15:16:28Z</time>
      </trkpt>
      <trkpt lat="47.22934" lon="5.68361">
        <ele>310.643066</ele>
        <time>2013-04-04T15:16:54Z</time>
      </trkpt>
      <trkpt lat="47.22935" lon="5.68362">
        <ele>309.201172</ele>
        <time>2013-04-04T15:18:09Z</time>
      </trkpt>
      <trkpt lat="47.22936" lon="5.68365">
        <ele>309.681885</ele>
        <time>2013-04-04T15:18:32Z</time>
      </trkpt>
      <trkpt lat="47.22934" lon="5.68351">
        <ele>307.759277</ele>
        <time>2013-04-04T15:19:16Z</time>
      </trkpt>
      <trkpt lat="47.22932" lon="5.68342">
        <ele>306.797852</ele>
        <time>2013-04-04T15:19:22Z</time>
      </trkpt>
      <trkpt lat="47.22926" lon="5.68325">
        <ele>304.875244</ele>
        <time>2013-04-04T15:19:35Z</time>
      </trkpt>
      <trkpt lat="47.22924" lon="5.68323">
        <ele>304.394653</ele>
        <time>2013-04-04T15:19:37Z</time>
      </trkpt>
      <trkpt lat="47.22923" lon="5.68312">
        <ele>303.91394</ele>
        <time>2013-04-04T15:19:43Z</time>
      </trkpt>
      <trkpt lat="47.22918" lon="5.68296">
        <ele>301.991333</ele>
        <time>2013-04-04T15:19:53Z</time>
      </trkpt>
      <trkpt lat="47.2291" lon="5.6828">
        <ele>299.588013</ele>
        <time>2013-04-04T15:20:08Z</time>
      </trkpt>
      <trkpt lat="47.22906" lon="5.68262">
        <ele>297.665405</ele>
        <time>2013-04-04T15:20:20Z</time>
      </trkpt>
      <trkpt lat="47.22905" lon="5.68251">
        <ele>296.223511</ele>
        <time>2013-04-04T15:20:28Z</time>
      </trkpt>
      <trkpt lat="47.22903" lon="5.6824">
        <ele>294.781372</ele>
        <time>2013-04-04T15:20:37Z</time>
      </trkpt>
      <trkpt lat="47.229" lon="5.68235">
        <ele>294.300781</ele>
        <time>2013-04-04T15:20:41Z</time>
      </trkpt>
      <trkpt lat="47.2289" lon="5.68226">
        <ele>292.858765</ele>
        <time>2013-04-04T15:20:51Z</time>
      </trkpt>
      <trkpt lat="47.22889" lon="5.68222">
        <ele>292.378174</ele>
        <time>2013-04-04T15:20:54Z</time>
      </trkpt>
      <trkpt lat="47.22889" lon="5.68216">
        <ele>291.897461</ele>
        <time>2013-04-04T15:20:57Z</time>
      </trkpt>
      <trkpt lat="47.22888" lon="5.68213">
        <ele>291.416748</ele>
        <time>2013-04-04T15:20:59Z</time>
      </trkpt>
      <trkpt lat="47.22883" lon="5.68198">
        <ele>289.494141</ele>
        <time>2013-04-04T15:21:15Z</time>
      </trkpt>
      <trkpt lat="47.22883" lon="5.68191">
        <ele>288.532959</ele>
        <time>2013-04-04T15:21:31Z</time>
      </trkpt>
      <trkpt lat="47.22881" lon="5.68191">
        <ele>288.532959</ele>
        <time>2013-04-04T15:22:07Z</time>
      </trkpt>
      <trkpt lat="47.22884" lon="5.68176">
        <ele>287.09082</ele>
        <time>2013-04-04T15:22:52Z</time>
      </trkpt>
      <trkpt lat="47.22882" lon="5.68157">
        <ele>284.206909</ele>
        <time>2013-04-04T15:23:10Z</time>
      </trkpt>
      <trkpt lat="47.22883" lon="5.68143">
        <ele>282.284302</ele>
        <time>2013-04-04T15:23:31Z</time>
      </trkpt>
      <trkpt lat="47.22875" lon="5.68129">
        <ele>279.880859</ele>
        <time>2013-04-04T15:23:45Z</time>
      </trkpt>
      <trkpt lat="47.22869" lon="5.68115">
        <ele>276.035645</ele>
        <time>2013-04-04T15:24:01Z</time>
      </trkpt>
      <trkpt lat="47.22857" lon="5.6809">
        <ele>274.113037</ele>
        <time>2013-04-04T15:24:22Z</time>
      </trkpt>
      <trkpt lat="47.22857" lon="5.68062">
        <ele>271.229126</ele>
        <time>2013-04-04T15:24:42Z</time>
      </trkpt>
      <trkpt lat="47.22854" lon="5.68045">
        <ele>268.825806</ele>
        <time>2013-04-04T15:24:56Z</time>
      </trkpt>
      <trkpt lat="47.22848" lon="5.68024">
        <ele>267.383911</ele>
        <time>2013-04-04T15:25:13Z</time>
      </trkpt>
      <trkpt lat="47.22846" lon="5.68026">
        <ele>265.461304</ele>
        <time>2013-04-04T15:27:22Z</time>
      </trkpt>
      <trkpt lat="47.22821" lon="5.68024">
        <ele>264.499878</ele>
        <time>2013-04-04T15:27:38Z</time>
      </trkpt>
      <trkpt lat="47.22809" lon="5.68023">
        <ele>262.577148</ele>
        <time>2013-04-04T15:27:46Z</time>
      </trkpt>
      <trkpt lat="47.22806" lon="5.68021">
        <ele>262.577148</ele>
        <time>2013-04-04T15:27:49Z</time>
      </trkpt>
      <trkpt lat="47.22796" lon="5.68018">
        <ele>261.135254</ele>
        <time>2013-04-04T15:27:58Z</time>
      </trkpt>
      <trkpt lat="47.2278" lon="5.68006">
        <ele>258.731934</ele>
        <time>2013-04-04T15:28:12Z</time>
      </trkpt>
      <trkpt lat="47.22763" lon="5.67992">
        <ele>256.328735</ele>
        <time>2013-04-04T15:28:27Z</time>
      </trkpt>
      <trkpt lat="47.22745" lon="5.67982">
        <ele>253.925415</ele>
        <time>2013-04-04T15:28:42Z</time>
      </trkpt>
      <trkpt lat="47.22728" lon="5.67974">
        <ele>252.002808</ele>
        <time>2013-04-04T15:28:55Z</time>
      </trkpt>
      <trkpt lat="47.22704" lon="5.67975">
        <ele>250.0802</ele>
        <time>2013-04-04T15:29:14Z</time>
      </trkpt>
      <trkpt lat="47.22686" lon="5.67976">
        <ele>248.157593</ele>
        <time>2013-04-04T15:29:27Z</time>
      </trkpt>
      <trkpt lat="47.22667" lon="5.67977">
        <ele>245.75415</ele>
        <time>2013-04-04T15:29:43Z</time>
      </trkpt>
      <trkpt lat="47.22646" lon="5.67982">
        <ele>244.792847</ele>
        <time>2013-04-04T15:29:58Z</time>
      </trkpt>
      <trkpt lat="47.22637" lon="5.67986">
        <ele>244.312256</ele>
        <time>2013-04-04T15:30:06Z</time>
      </trkpt>
      <trkpt lat="47.22621" lon="5.67996">
        <ele>243.35083</ele>
        <time>2013-04-04T15:30:21Z</time>
      </trkpt>
      <trkpt lat="47.22617" lon="5.67999">
        <ele>242.870239</ele>
        <time>2013-04-04T15:30:25Z</time>
      </trkpt>
      <trkpt lat="47.22608" lon="5.68008">
        <ele>242.870239</ele>
        <time>2013-04-04T15:30:35Z</time>
      </trkpt>
      <trkpt lat="47.22605" lon="5.6801">
        <ele>242.870239</ele>
        <time>2013-04-04T15:30:38Z</time>
      </trkpt>
      <trkpt lat="47.22587" lon="5.68025">
        <ele>240.947632</ele>
        <time>2013-04-04T15:30:54Z</time>
      </trkpt>
      <trkpt lat="47.22563" lon="5.68021">
        <ele>239.024902</ele>
        <time>2013-04-04T15:31:12Z</time>
      </trkpt>
      <trkpt lat="47.22559" lon="5.68017">
        <ele>238.544312</ele>
        <time>2013-04-04T15:31:16Z</time>
      </trkpt>
      <trkpt lat="47.22556" lon="5.68013">
        <ele>237.582886</ele>
        <time>2013-04-04T15:31:19Z</time>
      </trkpt>
      <trkpt lat="47.22551" lon="5.68012">
        <ele>237.582886</ele>
        <time>2013-04-04T15:31:23Z</time>
      </trkpt>
      <trkpt lat="47.22534" lon="5.68022">
        <ele>237.582886</ele>
        <time>2013-04-04T15:31:39Z</time>
      </trkpt>
      <trkpt lat="47.2252" lon="5.68033">
        <ele>237.582886</ele>
        <time>2013-04-04T15:31:51Z</time>
      </trkpt>
      <trkpt lat="47.22508" lon="5.68039">
        <ele>237.102295</ele>
        <time>2013-04-04T15:32:01Z</time>
      </trkpt>
      <trkpt lat="47.22488" lon="5.68053">
        <ele>236.140991</ele>
        <time>2013-04-04T15:32:17Z</time>
      </trkpt>
      <trkpt lat="47.22475" lon="5.68062">
        <ele>235.660278</ele>
        <time>2013-04-04T15:32:32Z</time>
      </trkpt>
      <trkpt lat="47.22454" lon="5.68071">
        <ele>234.699097</ele>
        <time>2013-04-04T15:32:50Z</time>
      </trkpt>
      <trkpt lat="47.22446" lon="5.68076">
        <ele>234.699097</ele>
        <time>2013-04-04T15:32:58Z</time>
      </trkpt>
      <trkpt lat="47.22427" lon="5.68086">
        <ele>233.737671</ele>
        <time>2013-04-04T15:33:13Z</time>
      </trkpt>
      <trkpt lat="47.22409" lon="5.68101">
        <ele>233.25708</ele>
        <time>2013-04-04T15:33:29Z</time>
      </trkpt>
      <trkpt lat="47.22403" lon="5.68105">
        <ele>233.25708</ele>
        <time>2013-04-04T15:33:35Z</time>
      </trkpt>
      <trkpt lat="47.22392" lon="5.68096">
        <ele>232.776489</ele>
        <time>2013-04-04T15:33:40Z</time>
      </trkpt>
      <trkpt lat="47.22387" lon="5.68074">
        <ele>231.334351</ele>
        <time>2013-04-04T15:33:50Z</time>
      </trkpt>
      <trkpt lat="47.22379" lon="5.68064">
        <ele>230.85376</ele>
        <time>2013-04-04T15:33:57Z</time>
      </trkpt>
      <trkpt lat="47.22379" lon="5.68058">
        <ele>230.85376</ele>
        <time>2013-04-04T15:34:00Z</time>
      </trkpt>
      <trkpt lat="47.22379" lon="5.68054">
        <ele>229.892334</ele>
        <time>2013-04-04T15:34:02Z</time>
      </trkpt>
      <trkpt lat="47.22367" lon="5.68034">
        <ele>228.450439</ele>
        <time>2013-04-04T15:34:18Z</time>
      </trkpt>
      <trkpt lat="47.2236" lon="5.68028">
        <ele>227.489136</ele>
        <time>2013-04-04T15:34:24Z</time>
      </trkpt>
      <trkpt lat="47.22352" lon="5.68007">
        <ele>224.605225</ele>
        <time>2013-04-04T15:34:39Z</time>
      </trkpt>
      <trkpt lat="47.22357" lon="5.67981">
        <ele>221.240601</ele>
        <time>2013-04-04T15:34:55Z</time>
      </trkpt>
      <trkpt lat="47.22356" lon="5.67959">
        <ele>218.83728</ele>
        <time>2013-04-04T15:35:09Z</time>
      </trkpt>
      <trkpt lat="47.22355" lon="5.67957">
        <ele>217.875977</ele>
        <time>2013-04-04T15:35:11Z</time>
      </trkpt>
      <trkpt lat="47.22354" lon="5.67948">
        <ele>217.875977</ele>
        <time>2013-04-04T15:35:18Z</time>
      </trkpt>
      <trkpt lat="47.22355" lon="5.67929">
        <ele>216.914673</ele>
        <time>2013-04-04T15:35:30Z</time>
      </trkpt>
      <trkpt lat="47.22354" lon="5.67915">
        <ele>217.395386</ele>
        <time>2013-04-04T15:35:43Z</time>
      </trkpt>
      <trkpt lat="47.22353" lon="5.67916">
        <ele>217.395386</ele>
        <time>2013-04-04T15:35:57Z</time>
      </trkpt>
    </trkseg>
  </trk>
</gpx>